Check out our new PWSWeather beta!
PWSweather.com
Personal Weather Stations
Station Observations
DL5ARK
SonnebergDE

SonnebergDE

Lat: 50.34904861, Lon: 11.18112087

Elevation: 1214

Station Type: Selfmade

http://www.sumbarg.de

High Low Average
Temperature 39.4°F4.1°C 33.2°F0.7°C 35.3°F1.8°C
Dew Point 42.9°F6.1°C 36.6°F2.6°C 38.5°F3.6°C
Winds 9.5 mph 15.3 kmh Calm Calm 1.0 mph WNW1.6 kmh WNW
Wind Gusts 9.7 mph15.6 kmh -- 1.0 mph1.6 kmh
Humidity 90% 80% 87%
Pressure 29.60 in1002.4 mb 29.26 in990.9 mb -
Precipitation 0.18 in4.6 mm - -
Hour Temp Dew Point Humidity Winds Wind Gusts Pressure Precip Precip Rate Daily Precip Total
12:00 AM 39.4°F4.1°C 42.7°F5.9°C 87% Calm Calm -- 29.33 in993.2 mb 0.00 in0.0 mm 0.00 in0.0 mm 0.16 in4.1 mm
12:03 AM 39.4°F4.1°C 42.8°F6.0°C 87% Calm Calm -- 29.33 in993.2 mb 0.00 in0.0 mm 0.00 in0.0 mm 0.00 in0.0 mm
12:06 AM 39.4°F4.1°C 42.9°F6.1°C 87% Calm Calm -- 29.33 in993.2 mb 0.00 in0.0 mm 0.00 in0.0 mm 0.00 in0.0 mm
12:09 AM 39.4°F4.1°C 42.9°F6.1°C 87% Calm Calm -- 29.33 in993.2 mb 0.00 in0.0 mm 0.00 in0.0 mm 0.00 in0.0 mm
12:12 AM 39.4°F4.1°C 42.8°F6.0°C 87% Calm Calm -- 29.33 in993.2 mb 0.00 in0.0 mm 0.00 in0.0 mm 0.00 in0.0 mm
12:15 AM 39.4°F4.1°C 42.7°F5.9°C 87% Calm Calm -- 29.33 in993.2 mb 0.00 in0.0 mm 0.00 in0.0 mm 0.00 in0.0 mm
12:18 AM 39.4°F4.1°C 42.9°F6.1°C 87% Calm Calm -- 29.32 in992.9 mb 0.00 in0.0 mm 0.00 in0.0 mm 0.00 in0.0 mm
12:21 AM 39.3°F4.1°C 42.8°F6.0°C 87% Calm Calm -- 29.33 in993.2 mb 0.00 in0.0 mm 0.00 in0.0 mm 0.00 in0.0 mm
12:24 AM 39.3°F4.1°C 42.6°F5.9°C 86% Calm Calm -- 29.33 in993.2 mb 0.00 in0.0 mm 0.00 in0.0 mm 0.00 in0.0 mm
12:27 AM 39.3°F4.1°C 42.8°F6.0°C 87% Calm Calm -- 29.33 in993.2 mb 0.00 in0.0 mm 0.00 in0.0 mm 0.00 in0.0 mm
12:30 AM 39.3°F4.1°C 42.7°F5.9°C 87% Calm Calm -- 29.33 in993.2 mb 0.00 in0.0 mm 0.00 in0.0 mm 0.00 in0.0 mm
12:33 AM 39.3°F4.1°C 42.7°F5.9°C 87% Calm Calm -- 29.33 in993.2 mb 0.00 in0.0 mm 0.00 in0.0 mm 0.00 in0.0 mm
12:36 AM 39.3°F4.1°C 42.9°F6.1°C 87% Calm Calm -- 29.33 in993.2 mb 0.00 in0.0 mm 0.00 in0.0 mm 0.00 in0.0 mm
12:39 AM 39.2°F4.0°C 42.7°F5.9°C 87% Calm Calm -- 29.33 in993.2 mb 0.00 in0.0 mm 0.00 in0.0 mm 0.00 in0.0 mm
12:42 AM 39.3°F4.1°C 42.6°F5.9°C 87% Calm Calm -- 29.33 in993.2 mb 0.00 in0.0 mm 0.00 in0.0 mm 0.00 in0.0 mm
12:45 AM 39.2°F4.0°C 42.3°F5.7°C 86% Calm Calm -- 29.33 in993.2 mb 0.00 in0.0 mm 0.00 in0.0 mm 0.00 in0.0 mm
12:48 AM 39.2°F4.0°C 42.6°F5.9°C 86% Calm Calm -- 29.33 in993.2 mb 0.00 in0.0 mm 0.00 in0.0 mm 0.00 in0.0 mm
12:51 AM 39.3°F4.1°C 42.7°F5.9°C 87% Calm Calm -- 29.33 in993.2 mb 0.00 in0.0 mm 0.00 in0.0 mm 0.00 in0.0 mm
12:54 AM 39.3°F4.1°C 42.4°F5.8°C 87% Calm Calm -- 29.32 in992.9 mb 0.00 in0.0 mm 0.00 in0.0 mm 0.00 in0.0 mm
12:57 AM 39.2°F4.0°C 42.3°F5.7°C 87% Calm Calm -- 29.32 in992.9 mb 0.00 in0.0 mm 0.00 in0.0 mm 0.00 in0.0 mm
01:00 AM 39.2°F4.0°C 42.2°F5.7°C 86% 6.0 mph NW9.7 kmh NW 6.1 mph9.8 kmh 29.32 in992.9 mb 0.00 in0.0 mm 0.00 in0.0 mm 0.00 in0.0 mm
01:03 AM 39.2°F4.0°C 42.6°F5.9°C 87% Calm Calm -- 29.33 in993.2 mb 0.00 in0.0 mm 0.00 in0.0 mm 0.00 in0.0 mm
01:06 AM 39.2°F4.0°C 42.4°F5.8°C 87% Calm Calm -- 29.32 in992.9 mb 0.00 in0.0 mm 0.00 in0.0 mm 0.00 in0.0 mm
01:09 AM 39.2°F4.0°C 42.4°F5.8°C 87% Calm Calm -- 29.31 in992.6 mb 0.00 in0.0 mm 0.00 in0.0 mm 0.00 in0.0 mm
01:12 AM 39.1°F3.9°C 42.5°F5.8°C 87% Calm Calm -- 29.31 in992.6 mb 0.00 in0.0 mm 0.00 in0.0 mm 0.00 in0.0 mm
01:15 AM 39.1°F3.9°C 42.3°F5.7°C 87% Calm Calm -- 29.32 in992.9 mb 0.00 in0.0 mm 0.00 in0.0 mm 0.00 in0.0 mm
01:18 AM 39.1°F3.9°C 42.5°F5.8°C 87% Calm Calm -- 29.31 in992.6 mb 0.00 in0.0 mm 0.00 in0.0 mm 0.00 in0.0 mm
01:21 AM 39.1°F3.9°C 42.4°F5.8°C 87% Calm Calm -- 29.31 in992.6 mb 0.00 in0.0 mm 0.00 in0.0 mm 0.00 in0.0 mm
01:27 AM 39.1°F3.9°C 42.3°F5.7°C 87% Calm Calm -- 29.31 in992.6 mb 0.00 in0.0 mm 0.00 in0.0 mm 0.00 in0.0 mm
01:30 AM 39.1°F3.9°C 42.3°F5.7°C 87% Calm Calm -- 29.31 in992.6 mb 0.00 in0.0 mm 0.00 in0.0 mm 0.00 in0.0 mm
01:33 AM 39.0°F3.9°C 42.3°F5.7°C 87% Calm Calm -- 29.32 in992.9 mb 0.00 in0.0 mm 0.00 in0.0 mm 0.00 in0.0 mm
01:36 AM 39.0°F3.9°C 42.1°F5.6°C 86% Calm Calm -- 29.31 in992.6 mb 0.00 in0.0 mm 0.00 in0.0 mm 0.00 in0.0 mm
01:39 AM 39.0°F3.9°C 42.2°F5.7°C 87% Calm Calm -- 29.31 in992.6 mb 0.00 in0.0 mm 0.00 in0.0 mm 0.00 in0.0 mm
01:42 AM 39.0°F3.9°C 42.1°F5.6°C 87% Calm Calm -- 29.32 in992.9 mb 0.00 in0.0 mm 0.00 in0.0 mm 0.00 in0.0 mm
01:45 AM 39.0°F3.9°C 42.3°F5.7°C 87% Calm Calm -- 29.32 in992.9 mb 0.00 in0.0 mm 0.00 in0.0 mm 0.00 in0.0 mm
01:48 AM 39.0°F3.9°C 42.1°F5.6°C 86% Calm Calm -- 29.31 in992.6 mb 0.00 in0.0 mm 0.00 in0.0 mm 0.00 in0.0 mm
01:51 AM 39.0°F3.9°C 42.1°F5.6°C 86% 0.4 mph NNW0.6 kmh NNW 0.4 mph0.6 kmh 29.31 in992.6 mb 0.00 in0.0 mm 0.00 in0.0 mm 0.00 in0.0 mm
01:54 AM 38.9°F3.8°C 41.8°F5.4°C 85% 3.6 mph NW5.8 kmh NW 3.7 mph6.0 kmh 29.31 in992.6 mb 0.00 in0.0 mm 0.00 in0.0 mm 0.00 in0.0 mm
01:57 AM 38.9°F3.8°C 42.0°F5.6°C 86% Calm Calm -- 29.31 in992.6 mb 0.00 in0.0 mm 0.00 in0.0 mm 0.00 in0.0 mm
02:00 AM 38.9°F3.8°C 41.9°F5.5°C 86% Calm Calm -- 29.31 in992.6 mb 0.00 in0.0 mm 0.00 in0.0 mm 0.00 in0.0 mm
02:03 AM 38.8°F3.8°C 41.7°F5.4°C 86% Calm Calm -- 29.31 in992.6 mb 0.00 in0.0 mm 0.00 in0.0 mm 0.00 in0.0 mm
02:06 AM 38.8°F3.8°C 41.5°F5.3°C 85% Calm Calm -- 29.31 in992.6 mb 0.00 in0.0 mm 0.00 in0.0 mm 0.00 in0.0 mm
02:09 AM 38.6°F3.7°C 41.5°F5.3°C 85% Calm Calm -- 29.31 in992.6 mb 0.00 in0.0 mm 0.00 in0.0 mm 0.00 in0.0 mm
02:12 AM 38.5°F3.6°C 41.6°F5.3°C 85% Calm Calm -- 29.31 in992.6 mb 0.00 in0.0 mm 0.00 in0.0 mm 0.00 in0.0 mm
02:15 AM 38.4°F3.6°C 41.4°F5.2°C 85% Calm Calm -- 29.31 in992.6 mb 0.00 in0.0 mm 0.00 in0.0 mm 0.00 in0.0 mm
02:18 AM 38.4°F3.6°C 41.5°F5.3°C 85% Calm Calm -- 29.31 in992.6 mb 0.00 in0.0 mm 0.00 in0.0 mm 0.00 in0.0 mm
02:21 AM 38.4°F3.6°C 41.3°F5.2°C 85% Calm Calm -- 29.31 in992.6 mb 0.00 in0.0 mm 0.00 in0.0 mm 0.00 in0.0 mm
02:24 AM 38.4°F3.6°C 41.5°F5.3°C 85% Calm Calm -- 29.31 in992.6 mb 0.00 in0.0 mm 0.00 in0.0 mm 0.00 in0.0 mm
02:27 AM 38.3°F3.5°C 41.4°F5.2°C 85% Calm Calm -- 29.31 in992.6 mb 0.00 in0.0 mm 0.00 in0.0 mm 0.00 in0.0 mm
02:30 AM 38.3°F3.5°C 41.4°F5.2°C 85% Calm Calm -- 29.31 in992.6 mb 0.00 in0.0 mm 0.00 in0.0 mm 0.00 in0.0 mm
02:33 AM 38.3°F3.5°C 41.2°F5.1°C 85% Calm Calm -- 29.31 in992.6 mb 0.00 in0.0 mm 0.00 in0.0 mm 0.00 in0.0 mm
02:36 AM 38.3°F3.5°C 41.4°F5.2°C 85% Calm Calm -- 29.31 in992.6 mb 0.00 in0.0 mm 0.00 in0.0 mm 0.00 in0.0 mm
02:39 AM 38.2°F3.4°C 41.3°F5.2°C 85% Calm Calm -- 29.31 in992.6 mb 0.00 in0.0 mm 0.00 in0.0 mm 0.00 in0.0 mm
02:42 AM 38.3°F3.5°C 41.0°F5.0°C 84% Calm Calm -- 29.31 in992.6 mb 0.00 in0.0 mm 0.00 in0.0 mm 0.00 in0.0 mm
02:45 AM 38.2°F3.4°C 41.3°F5.2°C 85% Calm Calm -- 29.31 in992.6 mb 0.00 in0.0 mm 0.00 in0.0 mm 0.00 in0.0 mm
02:48 AM 38.2°F3.4°C 41.4°F5.2°C 85% Calm Calm -- 29.31 in992.6 mb 0.00 in0.0 mm 0.00 in0.0 mm 0.00 in0.0 mm
02:51 AM 38.2°F3.4°C 41.2°F5.1°C 84% Calm Calm -- 29.31 in992.6 mb 0.00 in0.0 mm 0.00 in0.0 mm 0.00 in0.0 mm
02:54 AM 38.2°F3.4°C 41.2°F5.1°C 85% Calm Calm -- 29.31 in992.6 mb 0.00 in0.0 mm 0.00 in0.0 mm 0.00 in0.0 mm
02:57 AM 38.1°F3.4°C 41.2°F5.1°C 85% Calm Calm -- 29.31 in992.6 mb 0.00 in0.0 mm 0.00 in0.0 mm 0.00 in0.0 mm
03:00 AM 38.1°F3.4°C 41.1°F5.1°C 85% Calm Calm -- 29.30 in992.2 mb 0.00 in0.0 mm 0.00 in0.0 mm 0.00 in0.0 mm
03:03 AM 38.1°F3.4°C 41.3°F5.2°C 85% Calm Calm -- 29.30 in992.2 mb 0.00 in0.0 mm 0.00 in0.0 mm 0.00 in0.0 mm
03:06 AM 38.0°F3.3°C 41.0°F5.0°C 85% Calm Calm -- 29.30 in992.2 mb 0.00 in0.0 mm 0.00 in0.0 mm 0.00 in0.0 mm
03:09 AM 37.6°F3.1°C 40.8°F4.9°C 85% Calm Calm -- 29.30 in992.2 mb 0.00 in0.0 mm 0.00 in0.0 mm 0.00 in0.0 mm
03:12 AM 37.6°F3.1°C 40.9°F4.9°C 84% Calm Calm -- 29.30 in992.2 mb 0.00 in0.0 mm 0.00 in0.0 mm 0.00 in0.0 mm
03:15 AM 37.5°F3.1°C 40.9°F4.9°C 85% Calm Calm -- 29.30 in992.2 mb 0.00 in0.0 mm 0.00 in0.0 mm 0.00 in0.0 mm
03:18 AM 37.5°F3.1°C 40.9°F4.9°C 85% Calm Calm -- 29.30 in992.2 mb 0.00 in0.0 mm 0.00 in0.0 mm 0.00 in0.0 mm
03:21 AM 37.5°F3.1°C 40.7°F4.8°C 85% Calm Calm -- 29.29 in991.9 mb 0.00 in0.0 mm 0.00 in0.0 mm 0.00 in0.0 mm
03:24 AM 37.6°F3.1°C 41.0°F5.0°C 85% Calm Calm -- 29.29 in991.9 mb 0.00 in0.0 mm 0.00 in0.0 mm 0.00 in0.0 mm
03:27 AM 37.5°F3.1°C 40.8°F4.9°C 85% Calm Calm -- 29.29 in991.9 mb 0.00 in0.0 mm 0.00 in0.0 mm 0.00 in0.0 mm
03:30 AM 37.5°F3.1°C 40.9°F4.9°C 85% Calm Calm -- 29.29 in991.9 mb 0.00 in0.0 mm 0.00 in0.0 mm 0.00 in0.0 mm
03:33 AM 37.5°F3.1°C 40.8°F4.9°C 85% Calm Calm -- 29.29 in991.9 mb 0.00 in0.0 mm 0.00 in0.0 mm 0.00 in0.0 mm
03:36 AM 37.5°F3.1°C 40.8°F4.9°C 85% Calm Calm -- 29.29 in991.9 mb 0.00 in0.0 mm 0.00 in0.0 mm 0.00 in0.0 mm
03:39 AM 37.5°F3.1°C 40.8°F4.9°C 85% Calm Calm -- 29.29 in991.9 mb 0.00 in0.0 mm 0.00 in0.0 mm 0.00 in0.0 mm
03:42 AM 37.6°F3.1°C 40.7°F4.8°C 84% Calm Calm -- 29.29 in991.9 mb 0.00 in0.0 mm 0.00 in0.0 mm 0.00 in0.0 mm
03:45 AM 37.5°F3.1°C 40.9°F4.9°C 85% Calm Calm -- 29.29 in991.9 mb 0.00 in0.0 mm 0.00 in0.0 mm 0.00 in0.0 mm
03:48 AM 37.5°F3.1°C 40.8°F4.9°C 85% Calm Calm -- 29.29 in991.9 mb 0.00 in0.0 mm 0.00 in0.0 mm 0.00 in0.0 mm
03:51 AM 37.5°F3.1°C 40.2°F4.6°C 84% Calm Calm -- 29.29 in991.9 mb 0.00 in0.0 mm 0.00 in0.0 mm 0.00 in0.0 mm
03:54 AM 37.4°F3.0°C 40.5°F4.7°C 84% Calm Calm -- 29.29 in991.9 mb 0.00 in0.0 mm 0.00 in0.0 mm 0.00 in0.0 mm
03:57 AM 37.3°F2.9°C 40.5°F4.7°C 84% Calm Calm -- 29.29 in991.9 mb 0.00 in0.0 mm 0.00 in0.0 mm 0.00 in0.0 mm
04:00 AM 37.4°F3.0°C 40.5°F4.7°C 84% Calm Calm -- 29.29 in991.9 mb 0.00 in0.0 mm 0.00 in0.0 mm 0.00 in0.0 mm
04:03 AM 37.3°F2.9°C 40.4°F4.7°C 85% Calm Calm -- 29.29 in991.9 mb 0.00 in0.0 mm 0.00 in0.0 mm 0.00 in0.0 mm
04:06 AM 37.3°F2.9°C 40.6°F4.8°C 85% Calm Calm -- 29.29 in991.9 mb 0.00 in0.0 mm 0.00 in0.0 mm 0.00 in0.0 mm
04:09 AM 37.3°F2.9°C 40.7°F4.8°C 85% Calm Calm -- 29.29 in991.9 mb 0.00 in0.0 mm 0.00 in0.0 mm 0.00 in0.0 mm
04:12 AM 37.4°F3.0°C 40.5°F4.7°C 85% Calm Calm -- 29.29 in991.9 mb 0.00 in0.0 mm 0.00 in0.0 mm 0.00 in0.0 mm
04:15 AM 37.4°F3.0°C 40.5°F4.7°C 85% Calm Calm -- 29.29 in991.9 mb 0.00 in0.0 mm 0.00 in0.0 mm 0.00 in0.0 mm
04:18 AM 37.3°F2.9°C 40.4°F4.7°C 84% Calm Calm -- 29.29 in991.9 mb 0.00 in0.0 mm 0.00 in0.0 mm 0.00 in0.0 mm
04:21 AM 37.3°F2.9°C 40.6°F4.8°C 85% Calm Calm -- 29.29 in991.9 mb 0.00 in0.0 mm 0.00 in0.0 mm 0.00 in0.0 mm
04:24 AM 37.3°F2.9°C 40.3°F4.6°C 84% Calm Calm -- 29.29 in991.9 mb 0.00 in0.0 mm 0.00 in0.0 mm 0.00 in0.0 mm
04:27 AM 37.3°F2.9°C 40.5°F4.7°C 85% Calm Calm -- 29.29 in991.9 mb 0.00 in0.0 mm 0.00 in0.0 mm 0.00 in0.0 mm
04:30 AM 37.3°F2.9°C 40.5°F4.7°C 85% Calm Calm -- 29.29 in991.9 mb 0.00 in0.0 mm 0.00 in0.0 mm 0.00 in0.0 mm
04:33 AM 37.3°F2.9°C 40.6°F4.8°C 85% Calm Calm -- 29.29 in991.9 mb 0.00 in0.0 mm 0.00 in0.0 mm 0.00 in0.0 mm
04:36 AM 37.3°F2.9°C 40.5°F4.7°C 85% Calm Calm -- 29.29 in991.9 mb 0.00 in0.0 mm 0.00 in0.0 mm 0.00 in0.0 mm
04:39 AM 37.3°F2.9°C 40.4°F4.7°C 85% Calm Calm -- 29.29 in991.9 mb 0.00 in0.0 mm 0.00 in0.0 mm 0.00 in0.0 mm
04:42 AM 37.3°F2.9°C 40.2°F4.6°C 85% Calm Calm -- 29.28 in991.5 mb 0.00 in0.0 mm 0.00 in0.0 mm 0.00 in0.0 mm
04:45 AM 37.3°F2.9°C 40.6°F4.8°C 85% Calm Calm -- 29.27 in991.2 mb 0.00 in0.0 mm 0.00 in0.0 mm 0.00 in0.0 mm
04:48 AM 37.3°F2.9°C 40.3°F4.6°C 85% Calm Calm -- 29.27 in991.2 mb 0.00 in0.0 mm 0.00 in0.0 mm 0.00 in0.0 mm
04:51 AM 37.3°F2.9°C 40.4°F4.7°C 85% Calm Calm -- 29.27 in991.2 mb 0.00 in0.0 mm 0.00 in0.0 mm 0.00 in0.0 mm
04:54 AM 37.4°F3.0°C 40.5°F4.7°C 85% Calm Calm -- 29.27 in991.2 mb 0.00 in0.0 mm 0.00 in0.0 mm 0.00 in0.0 mm
04:57 AM 37.5°F3.1°C 40.6°F4.8°C 85% Calm Calm -- 29.27 in991.2 mb 0.00 in0.0 mm 0.00 in0.0 mm 0.00 in0.0 mm
05:00 AM 37.4°F3.0°C 40.5°F4.7°C 85% Calm Calm -- 29.27 in991.2 mb 0.00 in0.0 mm 0.00 in0.0 mm 0.00 in0.0 mm
05:03 AM 37.4°F3.0°C 40.3°F4.6°C 85% Calm Calm -- 29.27 in991.2 mb 0.00 in0.0 mm 0.00 in0.0 mm 0.00 in0.0 mm
05:06 AM 37.3°F2.9°C 40.4°F4.7°C 85% Calm Calm -- 29.27 in991.2 mb 0.00 in0.0 mm 0.00 in0.0 mm 0.00 in0.0 mm
05:09 AM 37.2°F2.9°C 40.1°F4.5°C 85% 7.3 mph W11.7 kmh W 7.3 mph11.7 kmh 29.27 in991.2 mb 0.00 in0.0 mm 0.00 in0.0 mm 0.00 in0.0 mm
05:12 AM 37.2°F2.9°C 40.3°F4.6°C 85% 0.8 mph WNW1.3 kmh WNW 0.8 mph1.3 kmh 29.27 in991.2 mb 0.00 in0.0 mm 0.00 in0.0 mm 0.00 in0.0 mm
05:15 AM 37.2°F2.9°C 40.2°F4.6°C 86% Calm Calm -- 29.27 in991.2 mb 0.00 in0.0 mm 0.00 in0.0 mm 0.00 in0.0 mm
05:18 AM 37.0°F2.8°C 40.1°F4.5°C 85% Calm Calm -- 29.27 in991.2 mb 0.00 in0.0 mm 0.00 in0.0 mm 0.00 in0.0 mm
05:21 AM 36.8°F2.7°C 40.1°F4.5°C 85% Calm Calm -- 29.26 in990.9 mb 0.00 in0.0 mm 0.00 in0.0 mm 0.00 in0.0 mm
05:24 AM 36.6°F2.6°C 40.1°F4.5°C 85% 6.0 mph W9.7 kmh W 6.1 mph9.8 kmh 29.27 in991.2 mb 0.00 in0.0 mm 0.00 in0.0 mm 0.00 in0.0 mm
05:27 AM 36.4°F2.4°C 39.8°F4.3°C 85% Calm Calm -- 29.27 in991.2 mb 0.00 in0.0 mm 0.00 in0.0 mm 0.00 in0.0 mm
05:30 AM 36.3°F2.4°C 39.9°F4.4°C 86% Calm Calm -- 29.27 in991.2 mb 0.00 in0.0 mm 0.00 in0.0 mm 0.00 in0.0 mm
05:33 AM 36.3°F2.4°C 39.9°F4.4°C 86% 3.6 mph NNW5.8 kmh NNW 3.6 mph5.8 kmh 29.27 in991.2 mb 0.00 in0.0 mm 0.00 in0.0 mm 0.00 in0.0 mm
05:36 AM 36.2°F2.3°C 39.7°F4.3°C 86% 8.0 mph WNW12.9 kmh WNW 8.1 mph13.0 kmh 29.27 in991.2 mb 0.00 in0.0 mm 0.00 in0.0 mm 0.02 in0.5 mm
05:39 AM 36.1°F2.3°C 39.5°F4.2°C 86% 9.2 mph W14.8 kmh W 9.3 mph15.0 kmh 29.27 in991.2 mb 0.00 in0.0 mm 0.00 in0.0 mm 0.02 in0.5 mm
05:42 AM 35.9°F2.2°C 39.3°F4.1°C 85% 6.0 mph NNW9.7 kmh NNW 6.1 mph9.8 kmh 29.26 in990.9 mb 0.00 in0.0 mm 0.00 in0.0 mm 0.02 in0.5 mm
05:45 AM 35.8°F2.1°C 39.3°F4.1°C 86% Calm Calm -- 29.27 in991.2 mb 0.00 in0.0 mm 0.00 in0.0 mm 0.02 in0.5 mm
05:48 AM 35.7°F2.1°C 39.4°F4.1°C 86% Calm Calm -- 29.27 in991.2 mb 0.00 in0.0 mm 0.00 in0.0 mm 0.02 in0.5 mm
05:51 AM 35.6°F2.0°C 39.3°F4.1°C 86% Calm Calm -- 29.26 in990.9 mb 0.00 in0.0 mm 0.00 in0.0 mm 0.02 in0.5 mm
05:54 AM 35.3°F1.8°C 38.9°F3.8°C 86% Calm Calm -- 29.27 in991.2 mb 0.00 in0.0 mm 0.00 in0.0 mm 0.02 in0.5 mm
05:57 AM 35.3°F1.8°C 39.0°F3.9°C 86% Calm Calm -- 29.27 in991.2 mb 0.00 in0.0 mm 0.00 in0.0 mm 0.02 in0.5 mm
06:00 AM 35.2°F1.8°C 39.1°F3.9°C 86% Calm Calm -- 29.27 in991.2 mb 0.00 in0.0 mm 0.00 in0.0 mm 0.02 in0.5 mm
06:03 AM 34.8°F1.6°C 39.3°F4.1°C 87% Calm Calm -- 29.28 in991.5 mb 0.00 in0.0 mm 0.00 in0.0 mm 0.04 in1.0 mm
06:06 AM 33.8°F1.0°C 38.3°F3.5°C 85% Calm Calm -- 29.29 in991.9 mb 0.00 in0.0 mm 0.00 in0.0 mm 0.04 in1.0 mm
06:09 AM 33.6°F0.9°C 38.2°F3.4°C 85% Calm Calm -- 29.29 in991.9 mb 0.00 in0.0 mm 0.00 in0.0 mm 0.04 in1.0 mm
06:12 AM 33.7°F0.9°C 38.1°F3.4°C 85% Calm Calm -- 29.29 in991.9 mb 0.00 in0.0 mm 0.00 in0.0 mm 0.04 in1.0 mm
06:15 AM 33.7°F0.9°C 38.0°F3.3°C 85% Calm Calm -- 29.28 in991.5 mb 0.00 in0.0 mm 0.00 in0.0 mm 0.04 in1.0 mm
06:18 AM 33.6°F0.9°C 38.2°F3.4°C 85% Calm Calm -- 29.28 in991.5 mb 0.00 in0.0 mm 0.00 in0.0 mm 0.04 in1.0 mm
06:21 AM 33.7°F0.9°C 37.9°F3.3°C 86% Calm Calm -- 29.28 in991.5 mb 0.00 in0.0 mm 0.00 in0.0 mm 0.04 in1.0 mm
06:24 AM 33.7°F0.9°C 37.9°F3.3°C 86% Calm Calm -- 29.28 in991.5 mb 0.00 in0.0 mm 0.00 in0.0 mm 0.04 in1.0 mm
06:27 AM 33.8°F1.0°C 38.0°F3.3°C 87% Calm Calm -- 29.29 in991.9 mb 0.00 in0.0 mm 0.00 in0.0 mm 0.04 in1.0 mm
06:30 AM 33.7°F0.9°C 37.5°F3.1°C 86% Calm Calm -- 29.29 in991.9 mb 0.00 in0.0 mm 0.00 in0.0 mm 0.04 in1.0 mm
06:33 AM 33.8°F1.0°C 37.7°F3.2°C 86% Calm Calm -- 29.29 in991.9 mb 0.00 in0.0 mm 0.00 in0.0 mm 0.04 in1.0 mm
06:36 AM 33.7°F0.9°C 37.9°F3.3°C 87% Calm Calm -- 29.29 in991.9 mb 0.00 in0.0 mm 0.00 in0.0 mm 0.04 in1.0 mm
06:39 AM 33.8°F1.0°C 37.8°F3.2°C 86% Calm Calm -- 29.29 in991.9 mb 0.00 in0.0 mm 0.00 in0.0 mm 0.04 in1.0 mm
06:42 AM 33.8°F1.0°C 37.7°F3.2°C 86% 3.4 mph NNW5.5 kmh NNW 3.4 mph5.5 kmh 29.29 in991.9 mb 0.00 in0.0 mm 0.00 in0.0 mm 0.04 in1.0 mm
06:45 AM 33.8°F1.0°C 37.4°F3.0°C 86% 1.6 mph W2.6 kmh W 1.6 mph2.6 kmh 29.29 in991.9 mb 0.00 in0.0 mm 0.00 in0.0 mm 0.04 in1.0 mm
06:48 AM 33.8°F1.0°C 37.6°F3.1°C 86% Calm Calm -- 29.29 in991.9 mb 0.00 in0.0 mm 0.00 in0.0 mm 0.04 in1.0 mm
06:51 AM 33.8°F1.0°C 37.7°F3.2°C 86% 0.8 mph W1.3 kmh W 0.8 mph1.3 kmh 29.29 in991.9 mb 0.00 in0.0 mm 0.00 in0.0 mm 0.04 in1.0 mm
06:54 AM 33.7°F0.9°C 37.6°F3.1°C 86% Calm Calm -- 29.29 in991.9 mb 0.00 in0.0 mm 0.00 in0.0 mm 0.04 in1.0 mm
06:57 AM 33.7°F0.9°C 37.4°F3.0°C 86% 6.9 mph WNW11.1 kmh WNW 7.0 mph11.3 kmh 29.29 in991.9 mb 0.00 in0.0 mm 0.00 in0.0 mm 0.04 in1.0 mm
07:00 AM 33.7°F0.9°C 37.6°F3.1°C 86% Calm Calm -- 29.30 in992.2 mb 0.00 in0.0 mm 0.00 in0.0 mm 0.04 in1.0 mm
07:03 AM 33.7°F0.9°C 37.1°F2.8°C 86% Calm Calm -- 29.30 in992.2 mb 0.00 in0.0 mm 0.00 in0.0 mm 0.04 in1.0 mm
07:06 AM 33.7°F0.9°C 37.2°F2.9°C 86% Calm Calm -- 29.30 in992.2 mb 0.00 in0.0 mm 0.00 in0.0 mm 0.04 in1.0 mm
07:09 AM 33.7°F0.9°C 37.5°F3.1°C 87% 5.6 mph W9.0 kmh W 5.7 mph9.2 kmh 29.30 in992.2 mb 0.00 in0.0 mm 0.00 in0.0 mm 0.06 in1.5 mm
07:12 AM 33.7°F0.9°C 37.2°F2.9°C 86% Calm Calm -- 29.30 in992.2 mb 0.00 in0.0 mm 0.00 in0.0 mm 0.06 in1.5 mm
07:15 AM 33.7°F0.9°C 37.3°F2.9°C 86% Calm Calm -- 29.30 in992.2 mb 0.00 in0.0 mm 0.00 in0.0 mm 0.06 in1.5 mm
07:18 AM 33.7°F0.9°C 37.2°F2.9°C 86% 5.7 mph NW9.2 kmh NW 5.8 mph9.3 kmh 29.30 in992.2 mb 0.00 in0.0 mm 0.00 in0.0 mm 0.06 in1.5 mm
07:21 AM 33.7°F0.9°C 36.9°F2.7°C 85% Calm Calm -- 29.30 in992.2 mb 0.00 in0.0 mm 0.00 in0.0 mm 0.06 in1.5 mm
07:24 AM 33.7°F0.9°C 37.1°F2.8°C 86% 7.7 mph NNW12.4 kmh NNW 7.7 mph12.4 kmh 29.31 in992.6 mb 0.00 in0.0 mm 0.00 in0.0 mm 0.06 in1.5 mm
07:27 AM 33.7°F0.9°C 36.9°F2.7°C 85% Calm Calm -- 29.31 in992.6 mb 0.00 in0.0 mm 0.00 in0.0 mm 0.06 in1.5 mm
07:30 AM 33.7°F0.9°C 37.3°F2.9°C 86% Calm Calm -- 29.31 in992.6 mb 0.00 in0.0 mm 0.00 in0.0 mm 0.06 in1.5 mm
07:33 AM 33.6°F0.9°C 37.2°F2.9°C 86% Calm Calm -- 29.31 in992.6 mb 0.00 in0.0 mm 0.00 in0.0 mm 0.06 in1.5 mm
07:36 AM 33.7°F0.9°C 37.1°F2.8°C 87% 3.6 mph NW5.8 kmh NW 3.6 mph5.8 kmh 29.31 in992.6 mb 0.00 in0.0 mm 0.00 in0.0 mm 0.06 in1.5 mm
07:39 AM 33.7°F0.9°C 37.3°F2.9°C 87% Calm Calm -- 29.31 in992.6 mb 0.00 in0.0 mm 0.00 in0.0 mm 0.06 in1.5 mm
07:42 AM 33.8°F1.0°C 37.3°F2.9°C 87% 8.3 mph W13.4 kmh W 8.4 mph13.5 kmh 29.31 in992.6 mb 0.00 in0.0 mm 0.00 in0.0 mm 0.06 in1.5 mm
07:45 AM 33.8°F1.0°C 36.8°F2.7°C 86% Calm Calm -- 29.31 in992.6 mb 0.00 in0.0 mm 0.00 in0.0 mm 0.06 in1.5 mm
07:48 AM 33.7°F0.9°C 37.1°F2.8°C 87% Calm Calm -- 29.31 in992.6 mb 0.00 in0.0 mm 0.00 in0.0 mm 0.06 in1.5 mm
07:51 AM 33.7°F0.9°C 37.1°F2.8°C 86% Calm Calm -- 29.31 in992.6 mb 0.00 in0.0 mm 0.00 in0.0 mm 0.06 in1.5 mm
07:54 AM 33.7°F0.9°C 36.8°F2.7°C 85% Calm Calm -- 29.31 in992.6 mb 0.00 in0.0 mm 0.00 in0.0 mm 0.06 in1.5 mm
07:57 AM 33.7°F0.9°C 37.1°F2.8°C 86% Calm Calm -- 29.31 in992.6 mb 0.00 in0.0 mm 0.00 in0.0 mm 0.06 in1.5 mm
08:00 AM 33.8°F1.0°C 37.1°F2.8°C 86% Calm Calm -- 29.32 in992.9 mb 0.00 in0.0 mm 0.00 in0.0 mm 0.06 in1.5 mm
08:03 AM 33.9°F1.1°C 36.7°F2.6°C 86% Calm Calm -- 29.32 in992.9 mb 0.00 in0.0 mm 0.00 in0.0 mm 0.06 in1.5 mm
08:06 AM 33.9°F1.1°C 36.9°F2.7°C 86% Calm Calm -- 29.33 in993.2 mb 0.00 in0.0 mm 0.00 in0.0 mm 0.06 in1.5 mm
08:09 AM 33.8°F1.0°C 37.2°F2.9°C 87% Calm Calm -- 29.33 in993.2 mb 0.00 in0.0 mm 0.00 in0.0 mm 0.06 in1.5 mm
08:12 AM 33.9°F1.1°C 37.1°F2.8°C 86% 1.1 mph W1.8 kmh W 1.2 mph1.9 kmh 29.33 in993.2 mb 0.00 in0.0 mm 0.00 in0.0 mm 0.06 in1.5 mm
08:15 AM 33.9°F1.1°C 37.0°F2.8°C 86% Calm Calm -- 29.33 in993.2 mb 0.00 in0.0 mm 0.00 in0.0 mm 0.06 in1.5 mm
08:18 AM 33.9°F1.1°C 37.0°F2.8°C 86% Calm Calm -- 29.33 in993.2 mb 0.00 in0.0 mm 0.00 in0.0 mm 0.06 in1.5 mm
08:21 AM 34.0°F1.1°C 36.8°F2.7°C 85% Calm Calm -- 29.33 in993.2 mb 0.00 in0.0 mm 0.00 in0.0 mm 0.06 in1.5 mm
08:24 AM 34.1°F1.2°C 37.2°F2.9°C 87% Calm Calm -- 29.33 in993.2 mb 0.00 in0.0 mm 0.00 in0.0 mm 0.06 in1.5 mm
08:27 AM 34.0°F1.1°C 37.1°F2.8°C 86% Calm Calm -- 29.32 in992.9 mb 0.00 in0.0 mm 0.00 in0.0 mm 0.06 in1.5 mm
08:30 AM 34.0°F1.1°C 37.2°F2.9°C 86% Calm Calm -- 29.33 in993.2 mb 0.00 in0.0 mm 0.00 in0.0 mm 0.06 in1.5 mm
08:33 AM 34.0°F1.1°C 37.3°F2.9°C 86% Calm Calm -- 29.33 in993.2 mb 0.00 in0.0 mm 0.00 in0.0 mm 0.06 in1.5 mm
08:36 AM 34.1°F1.2°C 37.3°F2.9°C 87% Calm Calm -- 29.33 in993.2 mb 0.00 in0.0 mm 0.00 in0.0 mm 0.06 in1.5 mm
08:39 AM 34.1°F1.2°C 37.2°F2.9°C 86% Calm Calm -- 29.33 in993.2 mb 0.00 in0.0 mm 0.00 in0.0 mm 0.06 in1.5 mm
08:42 AM 34.1°F1.2°C 37.1°F2.8°C 86% Calm Calm -- 29.33 in993.2 mb 0.00 in0.0 mm 0.00 in0.0 mm 0.06 in1.5 mm
08:45 AM 34.1°F1.2°C 37.2°F2.9°C 86% Calm Calm -- 29.33 in993.2 mb 0.00 in0.0 mm 0.00 in0.0 mm 0.06 in1.5 mm
08:48 AM 34.1°F1.2°C 36.9°F2.7°C 85% Calm Calm -- 29.33 in993.2 mb 0.00 in0.0 mm 0.00 in0.0 mm 0.06 in1.5 mm
08:51 AM 34.4°F1.3°C 37.1°F2.8°C 86% Calm Calm -- 29.33 in993.2 mb 0.00 in0.0 mm 0.00 in0.0 mm 0.06 in1.5 mm
08:54 AM 34.4°F1.3°C 37.6°F3.1°C 86% Calm Calm -- 29.33 in993.2 mb 0.00 in0.0 mm 0.00 in0.0 mm 0.06 in1.5 mm
08:57 AM 34.4°F1.3°C 37.3°F2.9°C 86% Calm Calm -- 29.33 in993.2 mb 0.00 in0.0 mm 0.00 in0.0 mm 0.06 in1.5 mm
09:00 AM 34.3°F1.3°C 37.2°F2.9°C 86% 5.0 mph WSW8.0 kmh WSW 5.1 mph8.2 kmh 29.33 in993.2 mb 0.00 in0.0 mm 0.00 in0.0 mm 0.06 in1.5 mm
09:03 AM 34.3°F1.3°C 37.2°F2.9°C 86% Calm Calm -- 29.33 in993.2 mb 0.00 in0.0 mm 0.00 in0.0 mm 0.06 in1.5 mm
09:06 AM 34.4°F1.3°C 37.1°F2.8°C 86% Calm Calm -- 29.33 in993.2 mb 0.00 in0.0 mm 0.00 in0.0 mm 0.06 in1.5 mm
09:09 AM 34.6°F1.4°C 37.1°F2.8°C 85% 5.3 mph W8.5 kmh W 5.3 mph8.5 kmh 29.33 in993.2 mb 0.00 in0.0 mm 0.00 in0.0 mm 0.06 in1.5 mm
09:12 AM 34.6°F1.4°C 37.1°F2.8°C 86% Calm Calm -- 29.33 in993.2 mb 0.00 in0.0 mm 0.00 in0.0 mm 0.06 in1.5 mm
09:15 AM 34.6°F1.4°C 37.0°F2.8°C 85% Calm Calm -- 29.33 in993.2 mb 0.00 in0.0 mm 0.00 in0.0 mm 0.06 in1.5 mm
09:18 AM 34.6°F1.4°C 37.3°F2.9°C 86% Calm Calm -- 29.33 in993.2 mb 0.00 in0.0 mm 0.00 in0.0 mm 0.06 in1.5 mm
09:21 AM 34.6°F1.4°C 37.1°F2.8°C 85% Calm Calm -- 29.33 in993.2 mb 0.00 in0.0 mm 0.00 in0.0 mm 0.06 in1.5 mm
09:24 AM 34.6°F1.4°C 37.1°F2.8°C 85% Calm Calm -- 29.33 in993.2 mb 0.00 in0.0 mm 0.00 in0.0 mm 0.06 in1.5 mm
09:27 AM 34.7°F1.5°C 37.3°F2.9°C 85% Calm Calm -- 29.33 in993.2 mb 0.00 in0.0 mm 0.00 in0.0 mm 0.06 in1.5 mm
09:30 AM 35.3°F1.8°C 37.2°F2.9°C 86% Calm Calm -- 29.33 in993.2 mb 0.00 in0.0 mm 0.00 in0.0 mm 0.06 in1.5 mm
09:33 AM 35.6°F2.0°C 37.3°F2.9°C 86% Calm Calm -- 29.33 in993.2 mb 0.00 in0.0 mm 0.00 in0.0 mm 0.06 in1.5 mm
09:36 AM 35.7°F2.1°C 37.7°F3.2°C 86% 6.1 mph WNW9.8 kmh WNW 6.1 mph9.8 kmh 29.33 in993.2 mb 0.00 in0.0 mm 0.00 in0.0 mm 0.06 in1.5 mm
09:39 AM 35.4°F1.9°C 37.8°F3.2°C 86% Calm Calm -- 29.33 in993.2 mb 0.00 in0.0 mm 0.00 in0.0 mm 0.06 in1.5 mm
09:42 AM 35.3°F1.8°C 37.3°F2.9°C 85% Calm Calm -- 29.33 in993.2 mb 0.00 in0.0 mm 0.00 in0.0 mm 0.06 in1.5 mm
09:45 AM 35.2°F1.8°C 37.3°F2.9°C 85% Calm Calm -- 29.33 in993.2 mb 0.00 in0.0 mm 0.00 in0.0 mm 0.06 in1.5 mm
09:48 AM 35.0°F1.7°C 36.9°F2.7°C 84% 8.8 mph WSW14.2 kmh WSW 8.9 mph14.3 kmh 29.33 in993.2 mb 0.00 in0.0 mm 0.00 in0.0 mm 0.06 in1.5 mm
09:51 AM 35.3°F1.8°C 37.1°F2.8°C 84% Calm Calm -- 29.33 in993.2 mb 0.00 in0.0 mm 0.00 in0.0 mm 0.06 in1.5 mm
09:54 AM 35.3°F1.8°C 37.1°F2.8°C 84% 8.5 mph WNW13.7 kmh WNW 8.5 mph13.7 kmh 29.33 in993.2 mb 0.00 in0.0 mm 0.00 in0.0 mm 0.06 in1.5 mm
09:57 AM 34.9°F1.6°C 37.0°F2.8°C 84% Calm Calm -- 29.33 in993.2 mb 0.00 in0.0 mm 0.00 in0.0 mm 0.06 in1.5 mm
10:00 AM 34.8°F1.6°C 36.8°F2.7°C 84% Calm Calm -- 29.33 in993.2 mb 0.00 in0.0 mm 0.00 in0.0 mm 0.06 in1.5 mm
10:03 AM 34.8°F1.6°C 37.1°F2.8°C 84% 4.7 mph NW7.6 kmh NW 4.8 mph7.7 kmh 29.33 in993.2 mb 0.00 in0.0 mm 0.00 in0.0 mm 0.06 in1.5 mm
10:06 AM 34.9°F1.6°C 37.0°F2.8°C 84% Calm Calm -- 29.33 in993.2 mb 0.00 in0.0 mm 0.00 in0.0 mm 0.06 in1.5 mm
10:09 AM 35.3°F1.8°C 37.0°F2.8°C 84% 4.8 mph WSW7.7 kmh WSW 4.9 mph7.9 kmh 29.33 in993.2 mb 0.00 in0.0 mm 0.00 in0.0 mm 0.06 in1.5 mm
10:12 AM 35.5°F1.9°C 36.9°F2.7°C 84% Calm Calm -- 29.33 in993.2 mb 0.00 in0.0 mm 0.00 in0.0 mm 0.06 in1.5 mm
10:15 AM 35.7°F2.1°C 37.1°F2.8°C 84% Calm Calm -- 29.33 in993.2 mb 0.00 in0.0 mm 0.00 in0.0 mm 0.06 in1.5 mm
10:18 AM 35.5°F1.9°C 36.8°F2.7°C 84% Calm Calm -- 29.33 in993.2 mb 0.00 in0.0 mm 0.00 in0.0 mm 0.06 in1.5 mm
10:21 AM 35.4°F1.9°C 36.8°F2.7°C 83% 9.5 mph WSW15.3 kmh WSW 9.7 mph15.6 kmh 29.33 in993.2 mb 0.00 in0.0 mm 0.00 in0.0 mm 0.06 in1.5 mm
10:24 AM 35.7°F2.1°C 37.0°F2.8°C 83% Calm Calm -- 29.33 in993.2 mb 0.00 in0.0 mm 0.00 in0.0 mm 0.06 in1.5 mm
10:27 AM 36.1°F2.3°C 37.0°F2.8°C 84% 3.6 mph NNW5.8 kmh NNW 3.7 mph6.0 kmh 29.33 in993.2 mb 0.00 in0.0 mm 0.00 in0.0 mm 0.06 in1.5 mm
10:30 AM 36.3°F2.4°C 37.1°F2.8°C 84% 0.8 mph WNW1.3 kmh WNW 0.8 mph1.3 kmh 29.33 in993.2 mb 0.00 in0.0 mm 0.00 in0.0 mm 0.06 in1.5 mm
10:33 AM 36.3°F2.4°C 37.0°F2.8°C 83% 8.1 mph WNW13.0 kmh WNW 8.1 mph13.0 kmh 29.33 in993.2 mb 0.00 in0.0 mm 0.00 in0.0 mm 0.06 in1.5 mm
10:36 AM 36.2°F2.3°C 37.2°F2.9°C 83% Calm Calm -- 29.33 in993.2 mb 0.00 in0.0 mm 0.00 in0.0 mm 0.06 in1.5 mm
10:39 AM 36.4°F2.4°C 37.0°F2.8°C 83% 2.3 mph NNW3.7 kmh NNW 2.3 mph3.7 kmh 29.32 in992.9 mb 0.00 in0.0 mm 0.00 in0.0 mm 0.06 in1.5 mm
10:42 AM 36.6°F2.6°C 37.1°F2.8°C 83% Calm Calm -- 29.32 in992.9 mb 0.00 in0.0 mm 0.00 in0.0 mm 0.06 in1.5 mm
10:45 AM 36.8°F2.7°C 37.2°F2.9°C 83% 0.4 mph WNW0.6 kmh WNW 0.4 mph0.6 kmh 29.32 in992.9 mb 0.00 in0.0 mm 0.00 in0.0 mm 0.06 in1.5 mm
10:48 AM 36.7°F2.6°C 37.3°F2.9°C 83% Calm Calm -- 29.33 in993.2 mb 0.00 in0.0 mm 0.00 in0.0 mm 0.06 in1.5 mm
10:51 AM 36.5°F2.5°C 37.5°F3.1°C 83% Calm Calm -- 29.33 in993.2 mb 0.00 in0.0 mm 0.00 in0.0 mm 0.06 in1.5 mm
10:54 AM 36.4°F2.4°C 37.3°F2.9°C 82% Calm Calm -- 29.32 in992.9 mb 0.00 in0.0 mm 0.00 in0.0 mm 0.06 in1.5 mm
10:57 AM 36.5°F2.5°C 37.1°F2.8°C 81% 5.3 mph W8.5 kmh W 5.3 mph8.5 kmh 29.32 in992.9 mb 0.00 in0.0 mm 0.00 in0.0 mm 0.06 in1.5 mm
11:00 AM 36.5°F2.5°C 37.0°F2.8°C 82% 6.7 mph WSW10.8 kmh WSW 7.2 mph11.6 kmh 29.33 in993.2 mb 0.00 in0.0 mm 0.00 in0.0 mm 0.06 in1.5 mm
11:03 AM 36.5°F2.5°C 37.0°F2.8°C 81% Calm Calm -- 29.32 in992.9 mb 0.00 in0.0 mm 0.00 in0.0 mm 0.06 in1.5 mm
11:06 AM 36.4°F2.4°C 37.1°F2.8°C 81% Calm Calm -- 29.33 in993.2 mb 0.00 in0.0 mm 0.00 in0.0 mm 0.06 in1.5 mm
11:09 AM 36.4°F2.4°C 37.1°F2.8°C 81% 5.1 mph NNW8.2 kmh NNW 5.1 mph8.2 kmh 29.32 in992.9 mb 0.00 in0.0 mm 0.00 in0.0 mm 0.06 in1.5 mm
11:12 AM 36.2°F2.3°C 36.7°F2.6°C 80% Calm Calm -- 29.33 in993.2 mb 0.00 in0.0 mm 0.00 in0.0 mm 0.06 in1.5 mm
11:15 AM 36.1°F2.3°C 36.9°F2.7°C 81% 6.1 mph NNW9.8 kmh NNW 6.1 mph9.8 kmh 29.33 in993.2 mb 0.00 in0.0 mm 0.00 in0.0 mm 0.06 in1.5 mm
11:18 AM 35.8°F2.1°C 36.7°F2.6°C 81% Calm Calm -- 29.33 in993.2 mb 0.00 in0.0 mm 0.00 in0.0 mm 0.06 in1.5 mm
11:21 AM 35.5°F1.9°C 37.0°F2.8°C 81% Calm Calm -- 29.33 in993.2 mb 0.00 in0.0 mm 0.00 in0.0 mm 0.06 in1.5 mm
11:24 AM 35.4°F1.9°C 36.9°F2.7°C 81% Calm Calm -- 29.33 in993.2 mb 0.00 in0.0 mm 0.00 in0.0 mm 0.06 in1.5 mm
11:27 AM 35.3°F1.8°C 36.9°F2.7°C 82% 5.2 mph NNW8.4 kmh NNW 5.3 mph8.5 kmh 29.33 in993.2 mb 0.00 in0.0 mm 0.00 in0.0 mm 0.06 in1.5 mm
11:30 AM 34.8°F1.6°C 36.7°F2.6°C 82% Calm Calm -- 29.33 in993.2 mb 0.00 in0.0 mm 0.00 in0.0 mm 0.06 in1.5 mm
11:33 AM 34.8°F1.6°C 36.7°F2.6°C 83% 6.3 mph W10.1 kmh W 6.3 mph10.1 kmh 29.33 in993.2 mb 0.00 in0.0 mm 0.00 in0.0 mm 0.06 in1.5 mm
11:36 AM 34.3°F1.3°C 37.3°F2.9°C 84% Calm Calm -- 29.33 in993.2 mb 0.00 in0.0 mm 0.00 in0.0 mm 0.06 in1.5 mm
11:39 AM 34.6°F1.4°C 37.0°F2.8°C 84% Calm Calm -- 29.33 in993.2 mb 0.00 in0.0 mm 0.00 in0.0 mm 0.06 in1.5 mm
11:42 AM 34.8°F1.6°C 37.1°F2.8°C 84% Calm Calm -- 29.33 in993.2 mb 0.00 in0.0 mm 0.00 in0.0 mm 0.06 in1.5 mm
11:45 AM 34.8°F1.6°C 37.2°F2.9°C 85% Calm Calm -- 29.33 in993.2 mb 0.00 in0.0 mm 0.00 in0.0 mm 0.06 in1.5 mm
11:48 AM 34.6°F1.4°C 37.1°F2.8°C 84% Calm Calm -- 29.33 in993.2 mb 0.00 in0.0 mm 0.00 in0.0 mm 0.06 in1.5 mm
11:51 AM 34.6°F1.4°C 36.9°F2.7°C 84% Calm Calm -- 29.33 in993.2 mb 0.00 in0.0 mm 0.00 in0.0 mm 0.06 in1.5 mm
11:54 AM 34.7°F1.5°C 37.4°F3.0°C 86% 6.4 mph NW10.3 kmh NW 6.4 mph10.3 kmh 29.33 in993.2 mb 0.00 in0.0 mm 0.00 in0.0 mm 0.06 in1.5 mm
11:57 AM 34.4°F1.3°C 37.1°F2.8°C 86% Calm Calm -- 29.33 in993.2 mb 0.00 in0.0 mm 0.00 in0.0 mm 0.06 in1.5 mm
12:00 PM 34.0°F1.1°C 37.1°F2.8°C 86% 3.4 mph WNW5.5 kmh WNW 3.4 mph5.5 kmh 29.33 in993.2 mb 0.00 in0.0 mm 0.00 in0.0 mm 0.06 in1.5 mm
12:03 PM 34.0°F1.1°C 36.9°F2.7°C 86% Calm Calm -- 29.33 in993.2 mb 0.00 in0.0 mm 0.00 in0.0 mm 0.06 in1.5 mm
12:06 PM 34.0°F1.1°C 37.1°F2.8°C 86% Calm Calm -- 29.34 in993.6 mb 0.00 in0.0 mm 0.00 in0.0 mm 0.06 in1.5 mm
12:09 PM 34.6°F1.4°C 37.1°F2.8°C 86% Calm Calm -- 29.33 in993.2 mb 0.00 in0.0 mm 0.00 in0.0 mm 0.06 in1.5 mm
12:12 PM 34.3°F1.3°C 37.1°F2.8°C 86% Calm Calm -- 29.33 in993.2 mb 0.00 in0.0 mm 0.00 in0.0 mm 0.06 in1.5 mm
12:15 PM 34.0°F1.1°C 37.1°F2.8°C 86% Calm Calm -- 29.33 in993.2 mb 0.00 in0.0 mm 0.00 in0.0 mm 0.08 in2.0 mm
12:18 PM 33.9°F1.1°C 37.3°F2.9°C 86% Calm Calm -- 29.33 in993.2 mb 0.00 in0.0 mm 0.00 in0.0 mm 0.08 in2.0 mm
12:21 PM 33.9°F1.1°C 37.0°F2.8°C 85% Calm Calm -- 29.33 in993.2 mb 0.00 in0.0 mm 0.00 in0.0 mm 0.08 in2.0 mm
12:24 PM 34.1°F1.2°C 37.3°F2.9°C 86% Calm Calm -- 29.33 in993.2 mb 0.00 in0.0 mm 0.00 in0.0 mm 0.08 in2.0 mm
12:27 PM 34.0°F1.1°C 37.1°F2.8°C 86% Calm Calm -- 29.33 in993.2 mb 0.00 in0.0 mm 0.00 in0.0 mm 0.08 in2.0 mm
12:30 PM 33.9°F1.1°C 37.2°F2.9°C 86% Calm Calm -- 29.33 in993.2 mb 0.00 in0.0 mm 0.00 in0.0 mm 0.08 in2.0 mm
12:33 PM 33.8°F1.0°C 37.1°F2.8°C 86% Calm Calm -- 29.33 in993.2 mb 0.00 in0.0 mm 0.00 in0.0 mm 0.08 in2.0 mm
12:36 PM 33.7°F0.9°C 37.1°F2.8°C 86% Calm Calm -- 29.33 in993.2 mb 0.00 in0.0 mm 0.00 in0.0 mm 0.08 in2.0 mm
12:39 PM 33.9°F1.1°C 37.1°F2.8°C 87% Calm Calm -- 29.34 in993.6 mb 0.00 in0.0 mm 0.00 in0.0 mm 0.08 in2.0 mm
12:42 PM 33.7°F0.9°C 36.6°F2.6°C 86% Calm Calm -- 29.34 in993.6 mb 0.00 in0.0 mm 0.00 in0.0 mm 0.08 in2.0 mm
12:45 PM 34.0°F1.1°C 37.0°F2.8°C 87% Calm Calm -- 29.34 in993.6 mb 0.00 in0.0 mm 0.00 in0.0 mm 0.08 in2.0 mm
12:48 PM 34.3°F1.3°C 37.1°F2.8°C 87% Calm Calm -- 29.34 in993.6 mb 0.00 in0.0 mm 0.00 in0.0 mm 0.08 in2.0 mm
12:51 PM 34.3°F1.3°C 37.2°F2.9°C 88% Calm Calm -- 29.34 in993.6 mb 0.00 in0.0 mm 0.00 in0.0 mm 0.08 in2.0 mm
12:54 PM 34.1°F1.2°C 37.1°F2.8°C 88% Calm Calm -- 29.34 in993.6 mb 0.00 in0.0 mm 0.00 in0.0 mm 0.08 in2.0 mm
01:00 PM 33.9°F1.1°C 37.2°F2.9°C 88% Calm Calm -- 29.34 in993.6 mb 0.00 in0.0 mm 0.00 in0.0 mm 0.08 in2.0 mm
01:03 PM 34.0°F1.1°C 37.3°F2.9°C 88% Calm Calm -- 29.34 in993.6 mb 0.00 in0.0 mm 0.00 in0.0 mm 0.08 in2.0 mm
01:06 PM 34.0°F1.1°C 37.3°F2.9°C 88% Calm Calm -- 29.34 in993.6 mb 0.00 in0.0 mm 0.00 in0.0 mm 0.08 in2.0 mm
01:09 PM 34.3°F1.3°C 37.3°F2.9°C 88% Calm Calm -- 29.34 in993.6 mb 0.00 in0.0 mm 0.00 in0.0 mm 0.08 in2.0 mm
01:12 PM 34.5°F1.4°C 37.2°F2.9°C 88% Calm Calm -- 29.34 in993.6 mb 0.00 in0.0 mm 0.00 in0.0 mm 0.10 in2.5 mm
01:15 PM 34.4°F1.3°C 37.3°F2.9°C 88% Calm Calm -- 29.34 in993.6 mb 0.00 in0.0 mm 0.00 in0.0 mm 0.10 in2.5 mm
01:18 PM 34.6°F1.4°C 37.2°F2.9°C 88% Calm Calm -- 29.34 in993.6 mb 0.00 in0.0 mm 0.00 in0.0 mm 0.10 in2.5 mm
01:21 PM 34.4°F1.3°C 37.3°F2.9°C 88% 5.6 mph WNW9.0 kmh WNW 5.7 mph9.2 kmh 29.34 in993.6 mb 0.00 in0.0 mm 0.00 in0.0 mm 0.10 in2.5 mm
01:24 PM 34.3°F1.3°C 37.1°F2.8°C 88% Calm Calm -- 29.34 in993.6 mb 0.00 in0.0 mm 0.00 in0.0 mm 0.10 in2.5 mm
01:27 PM 34.3°F1.3°C 37.3°F2.9°C 88% Calm Calm -- 29.34 in993.6 mb 0.00 in0.0 mm 0.00 in0.0 mm 0.10 in2.5 mm
01:30 PM 34.1°F1.2°C 37.3°F2.9°C 88% 8.3 mph WNW13.4 kmh WNW 8.8 mph14.2 kmh 29.34 in993.6 mb 0.00 in0.0 mm 0.00 in0.0 mm 0.10 in2.5 mm
01:33 PM 34.3°F1.3°C 37.3°F2.9°C 88% Calm Calm -- 29.34 in993.6 mb 0.00 in0.0 mm 0.00 in0.0 mm 0.10 in2.5 mm
01:36 PM 34.3°F1.3°C 37.4°F3.0°C 88% 3.6 mph NNW5.8 kmh NNW 3.6 mph5.8 kmh 29.34 in993.6 mb 0.00 in0.0 mm 0.00 in0.0 mm 0.10 in2.5 mm
01:39 PM 34.5°F1.4°C 37.5°F3.1°C 88% Calm Calm -- 29.34 in993.6 mb 0.00 in0.0 mm 0.00 in0.0 mm 0.10 in2.5 mm
01:42 PM 34.6°F1.4°C 37.2°F2.9°C 88% Calm Calm -- 29.34 in993.6 mb 0.00 in0.0 mm 0.00 in0.0 mm 0.10 in2.5 mm
01:45 PM 34.7°F1.5°C 37.4°F3.0°C 88% Calm Calm -- 29.35 in993.9 mb 0.00 in0.0 mm 0.00 in0.0 mm 0.10 in2.5 mm
01:48 PM 34.7°F1.5°C 37.7°F3.2°C 89% Calm Calm -- 29.35 in993.9 mb 0.00 in0.0 mm 0.00 in0.0 mm 0.10 in2.5 mm
01:51 PM 34.8°F1.6°C 37.6°F3.1°C 88% Calm Calm -- 29.35 in993.9 mb 0.00 in0.0 mm 0.00 in0.0 mm 0.10 in2.5 mm
01:54 PM 34.7°F1.5°C 37.5°F3.1°C 88% Calm Calm -- 29.35 in993.9 mb 0.00 in0.0 mm 0.00 in0.0 mm 0.12 in3.0 mm
01:57 PM 34.7°F1.5°C 37.4°F3.0°C 87% Calm Calm -- 29.35 in993.9 mb 0.00 in0.0 mm 0.00 in0.0 mm 0.12 in3.0 mm
02:00 PM 35.0°F1.7°C 38.0°F3.3°C 88% Calm Calm -- 29.35 in993.9 mb 0.00 in0.0 mm 0.00 in0.0 mm 0.12 in3.0 mm
02:03 PM 35.0°F1.7°C 37.6°F3.1°C 88% 6.3 mph NW10.1 kmh NW 6.4 mph10.3 kmh 29.35 in993.9 mb 0.00 in0.0 mm 0.00 in0.0 mm 0.12 in3.0 mm
02:06 PM 34.7°F1.5°C 37.9°F3.3°C 88% Calm Calm -- 29.36 in994.2 mb 0.00 in0.0 mm 0.00 in0.0 mm 0.12 in3.0 mm
02:09 PM 34.8°F1.6°C 37.7°F3.2°C 88% Calm Calm -- 29.36 in994.2 mb 0.00 in0.0 mm 0.00 in0.0 mm 0.12 in3.0 mm
02:12 PM 34.6°F1.4°C 37.8°F3.2°C 88% Calm Calm -- 29.37 in994.6 mb 0.00 in0.0 mm 0.00 in0.0 mm 0.12 in3.0 mm
02:15 PM 34.4°F1.3°C 37.7°F3.2°C 88% Calm Calm -- 29.37 in994.6 mb 0.00 in0.0 mm 0.00 in0.0 mm 0.12 in3.0 mm
02:18 PM 34.3°F1.3°C 37.6°F3.1°C 88% 1.2 mph NNW1.9 kmh NNW 1.2 mph1.9 kmh 29.37 in994.6 mb 0.00 in0.0 mm 0.00 in0.0 mm 0.12 in3.0 mm
02:21 PM 34.5°F1.4°C 37.6°F3.1°C 88% Calm Calm -- 29.37 in994.6 mb 0.00 in0.0 mm 0.00 in0.0 mm 0.12 in3.0 mm
02:24 PM 34.5°F1.4°C 37.6°F3.1°C 88% Calm Calm -- 29.37 in994.6 mb 0.00 in0.0 mm 0.00 in0.0 mm 0.14 in3.6 mm
02:27 PM 34.6°F1.4°C 37.6°F3.1°C 88% Calm Calm -- 29.37 in994.6 mb 0.00 in0.0 mm 0.00 in0.0 mm 0.14 in3.6 mm
02:30 PM 34.6°F1.4°C 37.8°F3.2°C 88% Calm Calm -- 29.37 in994.6 mb 0.00 in0.0 mm 0.00 in0.0 mm 0.14 in3.6 mm
02:33 PM 34.6°F1.4°C 37.8°F3.2°C 88% Calm Calm -- 29.37 in994.6 mb 0.00 in0.0 mm 0.00 in0.0 mm 0.14 in3.6 mm
02:36 PM 34.7°F1.5°C 37.9°F3.3°C 88% Calm Calm -- 29.38 in994.9 mb 0.00 in0.0 mm 0.00 in0.0 mm 0.14 in3.6 mm
02:39 PM 34.9°F1.6°C 37.9°F3.3°C 89% Calm Calm -- 29.38 in994.9 mb 0.00 in0.0 mm 0.00 in0.0 mm 0.14 in3.6 mm
02:42 PM 35.0°F1.7°C 38.1°F3.4°C 89% Calm Calm -- 29.38 in994.9 mb 0.00 in0.0 mm 0.00 in0.0 mm 0.14 in3.6 mm
02:45 PM 35.3°F1.8°C 37.7°F3.2°C 89% Calm Calm -- 29.38 in994.9 mb 0.00 in0.0 mm 0.00 in0.0 mm 0.14 in3.6 mm
02:48 PM 35.4°F1.9°C 37.9°F3.3°C 89% Calm Calm -- 29.38 in994.9 mb 0.00 in0.0 mm 0.00 in0.0 mm 0.14 in3.6 mm
02:51 PM 35.7°F2.1°C 37.7°F3.2°C 88% Calm Calm -- 29.38 in994.9 mb 0.00 in0.0 mm 0.00 in0.0 mm 0.14 in3.6 mm
02:54 PM 36.5°F2.5°C 38.4°F3.6°C 90% Calm Calm -- 29.38 in994.9 mb 0.00 in0.0 mm 0.00 in0.0 mm 0.14 in3.6 mm
02:57 PM 36.5°F2.5°C 38.8°F3.8°C 90% 3.6 mph WNW5.8 kmh WNW 3.7 mph6.0 kmh 29.38 in994.9 mb 0.00 in0.0 mm 0.00 in0.0 mm 0.16 in4.1 mm
03:00 PM 36.2°F2.3°C 38.6°F3.7°C 89% Calm Calm -- 29.39 in995.3 mb 0.00 in0.0 mm 0.00 in0.0 mm 0.16 in4.1 mm
03:03 PM 36.5°F2.5°C 38.6°F3.7°C 89% Calm Calm -- 29.39 in995.3 mb 0.00 in0.0 mm 0.00 in0.0 mm 0.16 in4.1 mm
03:06 PM 36.3°F2.4°C 38.9°F3.8°C 89% Calm Calm -- 29.40 in995.6 mb 0.00 in0.0 mm 0.00 in0.0 mm 0.16 in4.1 mm
03:09 PM 36.3°F2.4°C 38.8°F3.8°C 89% Calm Calm -- 29.40 in995.6 mb 0.00 in0.0 mm 0.00 in0.0 mm 0.16 in4.1 mm
03:12 PM 36.3°F2.4°C 38.9°F3.8°C 89% Calm Calm -- 29.40 in995.6 mb 0.00 in0.0 mm 0.00 in0.0 mm 0.16 in4.1 mm
03:15 PM 36.5°F2.5°C 38.9°F3.8°C 89% Calm Calm -- 29.40 in995.6 mb 0.00 in0.0 mm 0.00 in0.0 mm 0.16 in4.1 mm
03:18 PM 36.3°F2.4°C 39.0°F3.9°C 89% Calm Calm -- 29.40 in995.6 mb 0.00 in0.0 mm 0.00 in0.0 mm 0.16 in4.1 mm
03:21 PM 36.1°F2.3°C 39.0°F3.9°C 89% Calm Calm -- 29.40 in995.6 mb 0.00 in0.0 mm 0.00 in0.0 mm 0.16 in4.1 mm
03:24 PM 35.9°F2.2°C 38.8°F3.8°C 89% Calm Calm -- 29.40 in995.6 mb 0.00 in0.0 mm 0.00 in0.0 mm 0.16 in4.1 mm
03:27 PM 35.8°F2.1°C 38.8°F3.8°C 89% Calm Calm -- 29.40 in995.6 mb 0.00 in0.0 mm 0.00 in0.0 mm 0.16 in4.1 mm
03:30 PM 35.9°F2.2°C 38.7°F3.7°C 88% Calm Calm -- 29.40 in995.6 mb 0.00 in0.0 mm 0.00 in0.0 mm 0.16 in4.1 mm
03:33 PM 35.9°F2.2°C 38.4°F3.6°C 88% Calm Calm -- 29.41 in995.9 mb 0.00 in0.0 mm 0.00 in0.0 mm 0.16 in4.1 mm
03:36 PM 36.4°F2.4°C 38.8°F3.8°C 89% Calm Calm -- 29.41 in995.9 mb 0.00 in0.0 mm 0.00 in0.0 mm 0.16 in4.1 mm
03:39 PM 36.1°F2.3°C 38.9°F3.8°C 89% Calm Calm -- 29.41 in995.9 mb 0.00 in0.0 mm 0.00 in0.0 mm 0.16 in4.1 mm
03:42 PM 35.8°F2.1°C 38.7°F3.7°C 89% Calm Calm -- 29.41 in995.9 mb 0.00 in0.0 mm 0.00 in0.0 mm 0.16 in4.1 mm
03:45 PM 35.9°F2.2°C 38.8°F3.8°C 89% Calm Calm -- 29.41 in995.9 mb 0.00 in0.0 mm 0.00 in0.0 mm 0.16 in4.1 mm
03:48 PM 36.2°F2.3°C 38.9°F3.8°C 89% Calm Calm -- 29.42 in996.3 mb 0.00 in0.0 mm 0.00 in0.0 mm 0.16 in4.1 mm
03:51 PM 36.1°F2.3°C 38.8°F3.8°C 89% Calm Calm -- 29.42 in996.3 mb 0.00 in0.0 mm 0.00 in0.0 mm 0.16 in4.1 mm
03:54 PM 36.1°F2.3°C 39.1°F3.9°C 88% Calm Calm -- 29.42 in996.3 mb 0.00 in0.0 mm 0.00 in0.0 mm 0.16 in4.1 mm
03:57 PM 35.8°F2.1°C 39.1°F3.9°C 89% Calm Calm -- 29.42 in996.3 mb 0.00 in0.0 mm 0.00 in0.0 mm 0.18 in4.6 mm
04:00 PM 35.8°F2.1°C 39.0°F3.9°C 88% Calm Calm -- 29.42 in996.3 mb 0.00 in0.0 mm 0.00 in0.0 mm 0.18 in4.6 mm
04:03 PM 35.8°F2.1°C 39.1°F3.9°C 89% Calm Calm -- 29.42 in996.3 mb 0.00 in0.0 mm 0.00 in0.0 mm 0.18 in4.6 mm
04:06 PM 35.8°F2.1°C 39.2°F4.0°C 89% Calm Calm -- 29.42 in996.3 mb 0.00 in0.0 mm 0.00 in0.0 mm 0.18 in4.6 mm
04:09 PM 35.6°F2.0°C 39.0°F3.9°C 88% Calm Calm -- 29.42 in996.3 mb 0.00 in0.0 mm 0.00 in0.0 mm 0.18 in4.6 mm
04:12 PM 35.6°F2.0°C 38.7°F3.7°C 88% Calm Calm -- 29.42 in996.3 mb 0.00 in0.0 mm 0.00 in0.0 mm 0.18 in4.6 mm
04:15 PM 35.4°F1.9°C 39.0°F3.9°C 88% Calm Calm -- 29.42 in996.3 mb 0.00 in0.0 mm 0.00 in0.0 mm 0.18 in4.6 mm
04:18 PM 35.4°F1.9°C 38.7°F3.7°C 88% Calm Calm -- 29.42 in996.3 mb 0.00 in0.0 mm 0.00 in0.0 mm 0.18 in4.6 mm
04:21 PM 35.3°F1.8°C 38.7°F3.7°C 88% Calm Calm -- 29.43 in996.6 mb 0.00 in0.0 mm 0.00 in0.0 mm 0.18 in4.6 mm
04:24 PM 35.4°F1.9°C 39.1°F3.9°C 88% Calm Calm -- 29.43 in996.6 mb 0.00 in0.0 mm 0.00 in0.0 mm 0.18 in4.6 mm
04:27 PM 35.4°F1.9°C 38.7°F3.7°C 88% Calm Calm -- 29.44 in997.0 mb 0.00 in0.0 mm 0.00 in0.0 mm 0.18 in4.6 mm
04:30 PM 35.3°F1.8°C 38.9°F3.8°C 89% Calm Calm -- 29.43 in996.6 mb 0.00 in0.0 mm 0.00 in0.0 mm 0.18 in4.6 mm
04:33 PM 35.2°F1.8°C 38.8°F3.8°C 89% Calm Calm -- 29.44 in997.0 mb 0.00 in0.0 mm 0.00 in0.0 mm 0.18 in4.6 mm
04:36 PM 35.3°F1.8°C 38.6°F3.7°C 88% Calm Calm -- 29.44 in997.0 mb 0.00 in0.0 mm 0.00 in0.0 mm 0.18 in4.6 mm
04:39 PM 35.3°F1.8°C 38.8°F3.8°C 89% Calm Calm -- 29.44 in997.0 mb 0.00 in0.0 mm 0.00 in0.0 mm 0.18 in4.6 mm
04:42 PM 35.3°F1.8°C 38.7°F3.7°C 88% Calm Calm -- 29.44 in997.0 mb 0.00 in0.0 mm 0.00 in0.0 mm 0.18 in4.6 mm
04:45 PM 35.2°F1.8°C 38.9°F3.8°C 89% Calm Calm -- 29.44 in997.0 mb 0.00 in0.0 mm 0.00 in0.0 mm 0.18 in4.6 mm
04:48 PM 35.0°F1.7°C 38.4°F3.6°C 88% Calm Calm -- 29.44 in997.0 mb 0.00 in0.0 mm 0.00 in0.0 mm 0.18 in4.6 mm
04:51 PM 35.2°F1.8°C 38.4°F3.6°C 88% Calm Calm -- 29.44 in997.0 mb 0.00 in0.0 mm 0.00 in0.0 mm 0.18 in4.6 mm
04:54 PM 35.0°F1.7°C 38.5°F3.6°C 88% Calm Calm -- 29.45 in997.3 mb 0.00 in0.0 mm 0.00 in0.0 mm 0.18 in4.6 mm
04:57 PM 35.0°F1.7°C 38.7°F3.7°C 88% Calm Calm -- 29.45 in997.3 mb 0.00 in0.0 mm 0.00 in0.0 mm 0.18 in4.6 mm
05:00 PM 35.0°F1.7°C 38.5°F3.6°C 88% Calm Calm -- 29.45 in997.3 mb 0.00 in0.0 mm 0.00 in0.0 mm 0.18 in4.6 mm
05:03 PM 35.0°F1.7°C 38.4°F3.6°C 87% Calm Calm -- 29.45 in997.3 mb 0.00 in0.0 mm 0.00 in0.0 mm 0.18 in4.6 mm
05:06 PM 35.2°F1.8°C 38.8°F3.8°C 89% Calm Calm -- 29.45 in997.3 mb 0.00 in0.0 mm 0.00 in0.0 mm 0.18 in4.6 mm
05:09 PM 35.0°F1.7°C 38.5°F3.6°C 88% Calm Calm -- 29.46 in997.6 mb 0.00 in0.0 mm 0.00 in0.0 mm 0.18 in4.6 mm
05:12 PM 35.2°F1.8°C 38.6°F3.7°C 88% Calm Calm -- 29.46 in997.6 mb 0.00 in0.0 mm 0.00 in0.0 mm 0.18 in4.6 mm
05:15 PM 35.0°F1.7°C 38.5°F3.6°C 89% Calm Calm -- 29.45 in997.3 mb 0.00 in0.0 mm 0.00 in0.0 mm 0.18 in4.6 mm
05:18 PM 35.0°F1.7°C 38.6°F3.7°C 89% Calm Calm -- 29.46 in997.6 mb 0.00 in0.0 mm 0.00 in0.0 mm 0.18 in4.6 mm
05:21 PM 35.0°F1.7°C 38.9°F3.8°C 88% Calm Calm -- 29.46 in997.6 mb 0.00 in0.0 mm 0.00 in0.0 mm 0.18 in4.6 mm
05:24 PM 34.9°F1.6°C 38.5°F3.6°C 88% Calm Calm -- 29.46 in997.6 mb 0.00 in0.0 mm 0.00 in0.0 mm 0.18 in4.6 mm
05:27 PM 34.8°F1.6°C 38.6°F3.7°C 88% Calm Calm -- 29.46 in997.6 mb 0.00 in0.0 mm 0.00 in0.0 mm 0.18 in4.6 mm
05:30 PM 34.8°F1.6°C 38.5°F3.6°C 88% Calm Calm -- 29.46 in997.6 mb 0.00 in0.0 mm 0.00 in0.0 mm 0.18 in4.6 mm
05:33 PM 34.8°F1.6°C 38.7°F3.7°C 88% Calm Calm -- 29.46 in997.6 mb 0.00 in0.0 mm 0.00 in0.0 mm 0.18 in4.6 mm
05:36 PM 34.7°F1.5°C 38.5°F3.6°C 89% Calm Calm -- 29.46 in997.6 mb 0.00 in0.0 mm 0.00 in0.0 mm 0.18 in4.6 mm
05:39 PM 34.6°F1.4°C 38.4°F3.6°C 88% Calm Calm -- 29.47 in998.0 mb 0.00 in0.0 mm 0.00 in0.0 mm 0.18 in4.6 mm
05:42 PM 34.6°F1.4°C 38.4°F3.6°C 88% Calm Calm -- 29.47 in998.0 mb 0.00 in0.0 mm 0.00 in0.0 mm 0.18 in4.6 mm
05:45 PM 34.6°F1.4°C 38.5°F3.6°C 89% Calm Calm -- 29.48 in998.3 mb 0.00 in0.0 mm 0.00 in0.0 mm 0.18 in4.6 mm
05:48 PM 34.5°F1.4°C 38.3°F3.5°C 89% Calm Calm -- 29.48 in998.3 mb 0.00 in0.0 mm 0.00 in0.0 mm 0.18 in4.6 mm
05:51 PM 34.5°F1.4°C 38.3°F3.5°C 88% Calm Calm -- 29.48 in998.3 mb 0.00 in0.0 mm 0.00 in0.0 mm 0.18 in4.6 mm
05:54 PM 34.5°F1.4°C 38.3°F3.5°C 88% Calm Calm -- 29.48 in998.3 mb 0.00 in0.0 mm 0.00 in0.0 mm 0.18 in4.6 mm
05:57 PM 34.5°F1.4°C 38.4°F3.6°C 88% Calm Calm -- 29.48 in998.3 mb 0.00 in0.0 mm 0.00 in0.0 mm 0.18 in4.6 mm
06:00 PM 34.5°F1.4°C 38.3°F3.5°C 88% Calm Calm -- 29.48 in998.3 mb 0.00 in0.0 mm 0.00 in0.0 mm 0.18 in4.6 mm
06:03 PM 34.5°F1.4°C 38.4°F3.6°C 88% Calm Calm -- 29.49 in998.6 mb 0.00 in0.0 mm 0.00 in0.0 mm 0.18 in4.6 mm
06:06 PM 34.5°F1.4°C 38.4°F3.6°C 89% Calm Calm -- 29.49 in998.6 mb 0.00 in0.0 mm 0.00 in0.0 mm 0.18 in4.6 mm
06:09 PM 34.5°F1.4°C 38.2°F3.4°C 88% Calm Calm -- 29.49 in998.6 mb 0.00 in0.0 mm 0.00 in0.0 mm 0.18 in4.6 mm
06:12 PM 34.5°F1.4°C 38.2°F3.4°C 88% Calm Calm -- 29.49 in998.6 mb 0.00 in0.0 mm 0.00 in0.0 mm 0.18 in4.6 mm
06:15 PM 34.5°F1.4°C 38.3°F3.5°C 88% Calm Calm -- 29.49 in998.6 mb 0.00 in0.0 mm 0.00 in0.0 mm 0.18 in4.6 mm
06:18 PM 34.5°F1.4°C 38.2°F3.4°C 88% Calm Calm -- 29.49 in998.6 mb 0.00 in0.0 mm 0.00 in0.0 mm 0.18 in4.6 mm
06:21 PM 34.4°F1.3°C 38.2°F3.4°C 88% Calm Calm -- 29.50 in999.0 mb 0.00 in0.0 mm 0.00 in0.0 mm 0.18 in4.6 mm
06:24 PM 34.4°F1.3°C 38.5°F3.6°C 88% Calm Calm -- 29.50 in999.0 mb 0.00 in0.0 mm 0.00 in0.0 mm 0.18 in4.6 mm
06:27 PM 34.3°F1.3°C 38.2°F3.4°C 88% Calm Calm -- 29.50 in999.0 mb 0.00 in0.0 mm 0.00 in0.0 mm 0.18 in4.6 mm
06:30 PM 34.3°F1.3°C 38.4°F3.6°C 88% Calm Calm -- 29.50 in999.0 mb 0.00 in0.0 mm 0.00 in0.0 mm 0.18 in4.6 mm
06:33 PM 34.3°F1.3°C 38.2°F3.4°C 88% Calm Calm -- 29.50 in999.0 mb 0.00 in0.0 mm 0.00 in0.0 mm 0.18 in4.6 mm
06:36 PM 34.3°F1.3°C 38.3°F3.5°C 88% Calm Calm -- 29.50 in999.0 mb 0.00 in0.0 mm 0.00 in0.0 mm 0.18 in4.6 mm
06:39 PM 34.1°F1.2°C 38.2°F3.4°C 88% Calm Calm -- 29.50 in999.0 mb 0.00 in0.0 mm 0.00 in0.0 mm 0.18 in4.6 mm
06:42 PM 34.0°F1.1°C 38.4°F3.6°C 88% Calm Calm -- 29.50 in999.0 mb 0.00 in0.0 mm 0.00 in0.0 mm 0.18 in4.6 mm
06:45 PM 33.7°F0.9°C 38.3°F3.5°C 88% Calm Calm -- 29.50 in999.0 mb 0.00 in0.0 mm 0.00 in0.0 mm 0.18 in4.6 mm
06:48 PM 33.8°F1.0°C 37.7°F3.2°C 87% Calm Calm -- 29.50 in999.0 mb 0.00 in0.0 mm 0.00 in0.0 mm 0.18 in4.6 mm
06:51 PM 33.9°F1.1°C 38.0°F3.3°C 87% Calm Calm -- 29.52 in999.7 mb 0.00 in0.0 mm 0.00 in0.0 mm 0.18 in4.6 mm
06:54 PM 33.9°F1.1°C 37.8°F3.2°C 87% Calm Calm -- 29.51 in999.3 mb 0.00 in0.0 mm 0.00 in0.0 mm 0.18 in4.6 mm
06:57 PM 33.8°F1.0°C 38.0°F3.3°C 88% Calm Calm -- 29.52 in999.7 mb 0.00 in0.0 mm 0.00 in0.0 mm 0.18 in4.6 mm
07:00 PM 33.9°F1.1°C 37.8°F3.2°C 87% Calm Calm -- 29.52 in999.7 mb 0.00 in0.0 mm 0.00 in0.0 mm 0.18 in4.6 mm
07:03 PM 34.0°F1.1°C 38.0°F3.3°C 88% Calm Calm -- 29.52 in999.7 mb 0.00 in0.0 mm 0.00 in0.0 mm 0.18 in4.6 mm
07:06 PM 33.9°F1.1°C 38.1°F3.4°C 88% Calm Calm -- 29.52 in999.7 mb 0.00 in0.0 mm 0.00 in0.0 mm 0.18 in4.6 mm
07:09 PM 34.0°F1.1°C 38.0°F3.3°C 88% Calm Calm -- 29.53 in1000.0 mb 0.00 in0.0 mm 0.00 in0.0 mm 0.18 in4.6 mm
07:12 PM 33.9°F1.1°C 38.1°F3.4°C 88% Calm Calm -- 29.52 in999.7 mb 0.00 in0.0 mm 0.00 in0.0 mm 0.18 in4.6 mm
07:15 PM 33.9°F1.1°C 38.0°F3.3°C 88% Calm Calm -- 29.53 in1000.0 mb 0.00 in0.0 mm 0.00 in0.0 mm 0.18 in4.6 mm
07:18 PM 34.0°F1.1°C 37.7°F3.2°C 87% Calm Calm -- 29.53 in1000.0 mb 0.00 in0.0 mm 0.00 in0.0 mm 0.18 in4.6 mm
07:21 PM 34.0°F1.1°C 38.1°F3.4°C 88% Calm Calm -- 29.53 in1000.0 mb 0.00 in0.0 mm 0.00 in0.0 mm 0.18 in4.6 mm
07:24 PM 34.0°F1.1°C 37.6°F3.1°C 87% Calm Calm -- 29.53 in1000.0 mb 0.00 in0.0 mm 0.00 in0.0 mm 0.18 in4.6 mm
07:27 PM 34.0°F1.1°C 37.9°F3.3°C 88% Calm Calm -- 29.53 in1000.0 mb 0.00 in0.0 mm 0.00 in0.0 mm 0.18 in4.6 mm
07:30 PM 34.0°F1.1°C 37.8°F3.2°C 88% Calm Calm -- 29.53 in1000.0 mb 0.00 in0.0 mm 0.00 in0.0 mm 0.18 in4.6 mm
07:33 PM 34.0°F1.1°C 37.9°F3.3°C 88% Calm Calm -- 29.53 in1000.0 mb 0.00 in0.0 mm 0.00 in0.0 mm 0.18 in4.6 mm
07:36 PM 34.0°F1.1°C 37.7°F3.2°C 87% Calm Calm -- 29.53 in1000.0 mb 0.00 in0.0 mm 0.00 in0.0 mm 0.18 in4.6 mm
07:39 PM 34.0°F1.1°C 38.0°F3.3°C 88% Calm Calm -- 29.54 in1000.3 mb 0.00 in0.0 mm 0.00 in0.0 mm 0.18 in4.6 mm
07:42 PM 33.9°F1.1°C 37.8°F3.2°C 88% Calm Calm -- 29.54 in1000.3 mb 0.00 in0.0 mm 0.00 in0.0 mm 0.18 in4.6 mm
07:45 PM 33.8°F1.0°C 37.8°F3.2°C 88% Calm Calm -- 29.54 in1000.3 mb 0.00 in0.0 mm 0.00 in0.0 mm 0.18 in4.6 mm
07:48 PM 33.8°F1.0°C 37.7°F3.2°C 88% Calm Calm -- 29.54 in1000.3 mb 0.00 in0.0 mm 0.00 in0.0 mm 0.18 in4.6 mm
07:51 PM 33.7°F0.9°C 37.9°F3.3°C 88% Calm Calm -- 29.54 in1000.3 mb 0.00 in0.0 mm 0.00 in0.0 mm 0.18 in4.6 mm
07:54 PM 33.8°F1.0°C 37.8°F3.2°C 88% Calm Calm -- 29.54 in1000.3 mb 0.00 in0.0 mm 0.00 in0.0 mm 0.18 in4.6 mm
07:57 PM 33.8°F1.0°C 37.5°F3.1°C 87% Calm Calm -- 29.55 in1000.7 mb 0.00 in0.0 mm 0.00 in0.0 mm 0.18 in4.6 mm
08:00 PM 33.8°F1.0°C 37.9°F3.3°C 88% Calm Calm -- 29.55 in1000.7 mb 0.00 in0.0 mm 0.00 in0.0 mm 0.18 in4.6 mm
08:03 PM 34.0°F1.1°C 37.7°F3.2°C 87% Calm Calm -- 29.55 in1000.7 mb 0.00 in0.0 mm 0.00 in0.0 mm 0.18 in4.6 mm
08:06 PM 33.9°F1.1°C 37.8°F3.2°C 88% Calm Calm -- 29.55 in1000.7 mb 0.00 in0.0 mm 0.00 in0.0 mm 0.18 in4.6 mm
08:09 PM 33.9°F1.1°C 37.9°F3.3°C 88% Calm Calm -- 29.55 in1000.7 mb 0.00 in0.0 mm 0.00 in0.0 mm 0.18 in4.6 mm
08:12 PM 33.9°F1.1°C 37.7°F3.2°C 88% Calm Calm -- 29.55 in1000.7 mb 0.00 in0.0 mm 0.00 in0.0 mm 0.18 in4.6 mm
08:15 PM 33.8°F1.0°C 37.9°F3.3°C 88% Calm Calm -- 29.55 in1000.7 mb 0.00 in0.0 mm 0.00 in0.0 mm 0.18 in4.6 mm
08:18 PM 33.7°F0.9°C 37.8°F3.2°C 88% Calm Calm -- 29.55 in1000.7 mb 0.00 in0.0 mm 0.00 in0.0 mm 0.18 in4.6 mm
08:21 PM 33.8°F1.0°C 37.7°F3.2°C 88% Calm Calm -- 29.55 in1000.7 mb 0.00 in0.0 mm 0.00 in0.0 mm 0.18 in4.6 mm
08:24 PM 33.8°F1.0°C 37.6°F3.1°C 88% Calm Calm -- 29.55 in1000.7 mb 0.00 in0.0 mm 0.00 in0.0 mm 0.18 in4.6 mm
08:27 PM 33.8°F1.0°C 37.6°F3.1°C 88% Calm Calm -- 29.55 in1000.7 mb 0.00 in0.0 mm 0.00 in0.0 mm 0.18 in4.6 mm
08:30 PM 33.8°F1.0°C 37.5°F3.1°C 88% Calm Calm -- 29.55 in1000.7 mb 0.00 in0.0 mm 0.00 in0.0 mm 0.18 in4.6 mm
08:33 PM 33.7°F0.9°C 37.7°F3.2°C 88% Calm Calm -- 29.55 in1000.7 mb 0.00 in0.0 mm 0.00 in0.0 mm 0.18 in4.6 mm
08:36 PM 33.7°F0.9°C 37.7°F3.2°C 88% Calm Calm -- 29.55 in1000.7 mb 0.00 in0.0 mm 0.00 in0.0 mm 0.18 in4.6 mm
08:39 PM 33.7°F0.9°C 37.4°F3.0°C 88% Calm Calm -- 29.55 in1000.7 mb 0.00 in0.0 mm 0.00 in0.0 mm 0.18 in4.6 mm
08:42 PM 33.8°F1.0°C 37.5°F3.1°C 87% Calm Calm -- 29.55 in1000.7 mb 0.00 in0.0 mm 0.00 in0.0 mm 0.18 in4.6 mm
08:45 PM 33.8°F1.0°C 37.6°F3.1°C 88% Calm Calm -- 29.56 in1001.0 mb 0.00 in0.0 mm 0.00 in0.0 mm 0.18 in4.6 mm
08:48 PM 33.8°F1.0°C 37.5°F3.1°C 88% Calm Calm -- 29.56 in1001.0 mb 0.00 in0.0 mm 0.00 in0.0 mm 0.18 in4.6 mm
08:51 PM 33.8°F1.0°C 37.5°F3.1°C 88% Calm Calm -- 29.55 in1000.7 mb 0.00 in0.0 mm 0.00 in0.0 mm 0.18 in4.6 mm
08:54 PM 33.9°F1.1°C 37.4°F3.0°C 88% Calm Calm -- 29.56 in1001.0 mb 0.00 in0.0 mm 0.00 in0.0 mm 0.18 in4.6 mm
08:57 PM 33.9°F1.1°C 37.4°F3.0°C 88% Calm Calm -- 29.56 in1001.0 mb 0.00 in0.0 mm 0.00 in0.0 mm 0.18 in4.6 mm
09:00 PM 33.8°F1.0°C 37.6°F3.1°C 88% Calm Calm -- 29.56 in1001.0 mb 0.00 in0.0 mm 0.00 in0.0 mm 0.18 in4.6 mm
09:03 PM 33.9°F1.1°C 37.3°F2.9°C 88% Calm Calm -- 29.56 in1001.0 mb 0.00 in0.0 mm 0.00 in0.0 mm 0.18 in4.6 mm
09:06 PM 33.9°F1.1°C 37.5°F3.1°C 88% Calm Calm -- 29.56 in1001.0 mb 0.00 in0.0 mm 0.00 in0.0 mm 0.18 in4.6 mm
09:09 PM 33.9°F1.1°C 37.2°F2.9°C 87% Calm Calm -- 29.56 in1001.0 mb 0.00 in0.0 mm 0.00 in0.0 mm 0.18 in4.6 mm
09:12 PM 33.9°F1.1°C 37.3°F2.9°C 88% Calm Calm -- 29.56 in1001.0 mb 0.00 in0.0 mm 0.00 in0.0 mm 0.18 in4.6 mm
09:15 PM 33.9°F1.1°C 37.3°F2.9°C 88% Calm Calm -- 29.57 in1001.4 mb 0.00 in0.0 mm 0.00 in0.0 mm 0.18 in4.6 mm
09:18 PM 33.9°F1.1°C 37.6°F3.1°C 88% Calm Calm -- 29.57 in1001.4 mb 0.00 in0.0 mm 0.00 in0.0 mm 0.18 in4.6 mm
09:21 PM 33.7°F0.9°C 37.5°F3.1°C 88% Calm Calm -- 29.57 in1001.4 mb 0.00 in0.0 mm 0.00 in0.0 mm 0.18 in4.6 mm
09:24 PM 33.7°F0.9°C 37.0°F2.8°C 87% Calm Calm -- 29.57 in1001.4 mb 0.00 in0.0 mm 0.00 in0.0 mm 0.18 in4.6 mm
09:27 PM 33.7°F0.9°C 37.3°F2.9°C 88% Calm Calm -- 29.57 in1001.4 mb 0.00 in0.0 mm 0.00 in0.0 mm 0.18 in4.6 mm
09:30 PM 33.8°F1.0°C 37.5°F3.1°C 88% Calm Calm -- 29.57 in1001.4 mb 0.00 in0.0 mm 0.00 in0.0 mm 0.18 in4.6 mm
09:33 PM 33.7°F0.9°C 37.7°F3.2°C 88% Calm Calm -- 29.57 in1001.4 mb 0.00 in0.0 mm 0.00 in0.0 mm 0.18 in4.6 mm
09:36 PM 33.7°F0.9°C 37.4°F3.0°C 88% Calm Calm -- 29.57 in1001.4 mb 0.00 in0.0 mm 0.00 in0.0 mm 0.18 in4.6 mm
09:39 PM 33.7°F0.9°C 37.3°F2.9°C 88% Calm Calm -- 29.57 in1001.4 mb 0.00 in0.0 mm 0.00 in0.0 mm 0.18 in4.6 mm
09:42 PM 33.7°F0.9°C 37.4°F3.0°C 88% Calm Calm -- 29.57 in1001.4 mb 0.00 in0.0 mm 0.00 in0.0 mm 0.18 in4.6 mm
09:45 PM 33.6°F0.9°C 37.3°F2.9°C 87% Calm Calm -- 29.57 in1001.4 mb 0.00 in0.0 mm 0.00 in0.0 mm 0.18 in4.6 mm
09:48 PM 33.7°F0.9°C 37.5°F3.1°C 88% Calm Calm -- 29.58 in1001.7 mb 0.00 in0.0 mm 0.00 in0.0 mm 0.18 in4.6 mm
09:51 PM 33.7°F0.9°C 37.6°F3.1°C 88% Calm Calm -- 29.58 in1001.7 mb 0.00 in0.0 mm 0.00 in0.0 mm 0.18 in4.6 mm
09:54 PM 33.7°F0.9°C 37.4°F3.0°C 88% Calm Calm -- 29.58 in1001.7 mb 0.00 in0.0 mm 0.00 in0.0 mm 0.18 in4.6 mm
09:57 PM 33.6°F0.9°C 37.3°F2.9°C 88% Calm Calm -- 29.58 in1001.7 mb 0.00 in0.0 mm 0.00 in0.0 mm 0.18 in4.6 mm
10:00 PM 33.4°F0.8°C 37.3°F2.9°C 88% Calm Calm -- 29.58 in1001.7 mb 0.00 in0.0 mm 0.00 in0.0 mm 0.18 in4.6 mm
10:03 PM 33.2°F0.7°C 37.2°F2.9°C 88% Calm Calm -- 29.58 in1001.7 mb 0.00 in0.0 mm 0.00 in0.0 mm 0.18 in4.6 mm
10:06 PM 33.4°F0.8°C 37.1°F2.8°C 88% Calm Calm -- 29.58 in1001.7 mb 0.00 in0.0 mm 0.00 in0.0 mm 0.18 in4.6 mm
10:09 PM 33.2°F0.7°C 37.4°F3.0°C 88% Calm Calm -- 29.58 in1001.7 mb 0.00 in0.0 mm 0.00 in0.0 mm 0.18 in4.6 mm
10:12 PM 33.4°F0.8°C 37.3°F2.9°C 88% Calm Calm -- 29.59 in1002.0 mb 0.00 in0.0 mm 0.00 in0.0 mm 0.18 in4.6 mm
10:15 PM 33.4°F0.8°C 37.2°F2.9°C 88% Calm Calm -- 29.59 in1002.0 mb 0.00 in0.0 mm 0.00 in0.0 mm 0.18 in4.6 mm
10:18 PM 33.4°F0.8°C 36.9°F2.7°C 87% Calm Calm -- 29.59 in1002.0 mb 0.00 in0.0 mm 0.00 in0.0 mm 0.18 in4.6 mm
10:21 PM 33.4°F0.8°C 37.2°F2.9°C 88% Calm Calm -- 29.59 in1002.0 mb 0.00 in0.0 mm 0.00 in0.0 mm 0.18 in4.6 mm
10:24 PM 33.5°F0.8°C 36.9°F2.7°C 88% Calm Calm -- 29.59 in1002.0 mb 0.00 in0.0 mm 0.00 in0.0 mm 0.18 in4.6 mm
10:27 PM 33.2°F0.7°C 37.1°F2.8°C 88% Calm Calm -- 29.59 in1002.0 mb 0.00 in0.0 mm 0.00 in0.0 mm 0.18 in4.6 mm
10:30 PM 33.2°F0.7°C 36.9°F2.7°C 88% Calm Calm -- 29.59 in1002.0 mb 0.00 in0.0 mm 0.00 in0.0 mm 0.18 in4.6 mm
10:33 PM 33.2°F0.7°C 37.2°F2.9°C 88% Calm Calm -- 29.58 in1001.7 mb 0.00 in0.0 mm 0.00 in0.0 mm 0.18 in4.6 mm
10:36 PM 33.4°F0.8°C 37.0°F2.8°C 88% Calm Calm -- 29.59 in1002.0 mb 0.00 in0.0 mm 0.00 in0.0 mm 0.18 in4.6 mm
10:39 PM 33.4°F0.8°C 37.1°F2.8°C 88% Calm Calm -- 29.59 in1002.0 mb 0.00 in0.0 mm 0.00 in0.0 mm 0.18 in4.6 mm
10:45 PM 33.5°F0.8°C 37.1°F2.8°C 88% Calm Calm -- 29.59 in1002.0 mb 0.00 in0.0 mm 0.00 in0.0 mm 0.18 in4.6 mm
10:48 PM 33.6°F0.9°C 37.3°F2.9°C 88% Calm Calm -- 29.59 in1002.0 mb 0.00 in0.0 mm 0.00 in0.0 mm 0.18 in4.6 mm
10:51 PM 33.6°F0.9°C 37.2°F2.9°C 88% Calm Calm -- 29.59 in1002.0 mb 0.00 in0.0 mm 0.00 in0.0 mm 0.18 in4.6 mm
10:54 PM 33.6°F0.9°C 37.0°F2.8°C 87% Calm Calm -- 29.59 in1002.0 mb 0.00 in0.0 mm 0.00 in0.0 mm 0.18 in4.6 mm
10:57 PM 33.6°F0.9°C 37.5°F3.1°C 89% Calm Calm -- 29.59 in1002.0 mb 0.00 in0.0 mm 0.00 in0.0 mm 0.18 in4.6 mm
11:00 PM 33.6°F0.9°C 37.3°F2.9°C 88% Calm Calm -- 29.59 in1002.0 mb 0.00 in0.0 mm 0.00 in0.0 mm 0.18 in4.6 mm
11:06 PM 33.6°F0.9°C 37.1°F2.8°C 88% 2.4 mph W3.9 kmh W 2.4 mph3.9 kmh 29.59 in1002.0 mb 0.00 in0.0 mm 0.00 in0.0 mm 0.18 in4.6 mm
11:09 PM 33.7°F0.9°C 37.1°F2.8°C 88% Calm Calm -- 29.59 in1002.0 mb 0.00 in0.0 mm 0.00 in0.0 mm 0.18 in4.6 mm
11:12 PM 33.7°F0.9°C 37.0°F2.8°C 87% Calm Calm -- 29.59 in1002.0 mb 0.00 in0.0 mm 0.00 in0.0 mm 0.18 in4.6 mm
11:15 PM 33.7°F0.9°C 37.0°F2.8°C 88% Calm Calm -- 29.59 in1002.0 mb 0.00 in0.0 mm 0.00 in0.0 mm 0.18 in4.6 mm
11:18 PM 33.7°F0.9°C 37.2°F2.9°C 88% Calm Calm -- 29.59 in1002.0 mb 0.00 in0.0 mm 0.00 in0.0 mm 0.18 in4.6 mm
11:21 PM 33.7°F0.9°C 37.1°F2.8°C 88% Calm Calm -- 29.59 in1002.0 mb 0.00 in0.0 mm 0.00 in0.0 mm 0.18 in4.6 mm
11:24 PM 33.7°F0.9°C 37.1°F2.8°C 88% Calm Calm -- 29.59 in1002.0 mb 0.00 in0.0 mm 0.00 in0.0 mm 0.18 in4.6 mm
11:27 PM 33.7°F0.9°C 37.3°F2.9°C 88% Calm Calm -- 29.60 in1002.4 mb 0.00 in0.0 mm 0.00 in0.0 mm 0.18 in4.6 mm
11:30 PM 33.7°F0.9°C 37.1°F2.8°C 88% Calm Calm -- 29.59 in1002.0 mb 0.00 in0.0 mm 0.00 in0.0 mm 0.18 in4.6 mm
11:33 PM 33.7°F0.9°C 37.1°F2.8°C 88% Calm Calm -- 29.59 in1002.0 mb 0.00 in0.0 mm 0.00 in0.0 mm 0.18 in4.6 mm
11:36 PM 33.7°F0.9°C 37.1°F2.8°C 88% Calm Calm -- 29.59 in1002.0 mb 0.00 in0.0 mm 0.00 in0.0 mm 0.18 in4.6 mm
11:39 PM 33.7°F0.9°C 37.1°F2.8°C 88% Calm Calm -- 29.59 in1002.0 mb 0.00 in0.0 mm 0.00 in0.0 mm 0.18 in4.6 mm
11:42 PM 33.7°F0.9°C 37.2°F2.9°C 88% 0.8 mph NNW1.3 kmh NNW 0.8 mph1.3 kmh 29.59 in1002.0 mb 0.00 in0.0 mm 0.00 in0.0 mm 0.18 in4.6 mm
11:45 PM 33.7°F0.9°C 37.3°F2.9°C 89% Calm Calm -- 29.59 in1002.0 mb 0.00 in0.0 mm 0.00 in0.0 mm 0.18 in4.6 mm
11:48 PM 33.7°F0.9°C 37.2°F2.9°C 88% Calm Calm -- 29.59 in1002.0 mb 0.00 in0.0 mm 0.00 in0.0 mm 0.18 in4.6 mm
11:51 PM 33.7°F0.9°C 37.0°F2.8°C 88% 0.4 mph NNW0.6 kmh NNW 0.4 mph0.6 kmh 29.59 in1002.0 mb 0.00 in0.0 mm 0.00 in0.0 mm 0.18 in4.6 mm
11:54 PM 33.7°F0.9°C 37.0°F2.8°C 88% Calm Calm -- 29.60 in1002.4 mb 0.00 in0.0 mm 0.00 in0.0 mm 0.18 in4.6 mm
11:57 PM 33.7°F0.9°C 37.0°F2.8°C 88% Calm Calm -- 29.60 in1002.4 mb 0.00 in0.0 mm 0.00 in0.0 mm 0.18 in4.6 mm